<?xml version="1.0" encoding="UTF-8" standalone="no" ?>
<gpx xmlns="http://www.topografix.com/GPX/1/1" xmlns:xsi="http://www.w3.org/2001/XMLSchema-instance" xsi:schemaLocation="http://www.topografix.com/GPX/1/1 http://www.topografix.com/GPX/1/1/gpx.xsd" version="1.1" creator="VisuGPX - https://www.visugpx.com">
  <metadata>
    <name>UT53</name>
  </metadata>
  <trk>
    <name><![CDATA[UT53 Étape 6]]></name>
    <extensions>
      <line xmlns="http://www.topografix.com/GPX/gpx_style/0/2">
        <color>FF00FF</color>
        <width>4</width>
      </line>
    </extensions>
    <trkseg>
      <trkpt lat="48.72464" lon="7.33857">
        <ele>431.34213236565</ele>
        <time>2021-07-07T14:49:23.000Z</time>
      </trkpt>
      <trkpt lat="48.7245" lon="7.33846">
        <ele>431.38511465333</ele>
        <time>2021-07-07T14:49:23.005Z</time>
      </trkpt>
      <trkpt lat="48.7244" lon="7.33839">
        <ele>431.61397005641</ele>
        <time>2021-07-07T14:49:23.014Z</time>
      </trkpt>
      <trkpt lat="48.72419" lon="7.33814">
        <ele>432.11846882798</ele>
        <time>2021-07-07T14:49:23.032Z</time>
      </trkpt>
      <trkpt lat="48.724" lon="7.33786">
        <ele>432.93898558543</ele>
        <time>2021-07-07T14:49:23.059Z</time>
      </trkpt>
      <trkpt lat="48.72385" lon="7.33771">
        <ele>433.76625084502</ele>
        <time>2021-07-07T14:49:23.092Z</time>
      </trkpt>
      <trkpt lat="48.72374" lon="7.3376">
        <ele>434.44915685033</ele>
        <time>2021-07-07T14:49:23.129Z</time>
      </trkpt>
      <trkpt lat="48.72366" lon="7.33748">
        <ele>435.04611958335</ele>
        <time>2021-07-07T14:49:23.170Z</time>
      </trkpt>
      <trkpt lat="48.72354" lon="7.33731">
        <ele>435.59132439666</ele>
        <time>2021-07-07T14:49:23.216Z</time>
      </trkpt>
      <trkpt lat="48.72352" lon="7.33728">
        <ele>436.02289760055</ele>
        <time>2021-07-07T14:49:23.263Z</time>
      </trkpt>
      <trkpt lat="48.72351" lon="7.33725">
        <ele>436.36473010001</ele>
        <time>2021-07-07T14:49:23.311Z</time>
      </trkpt>
      <trkpt lat="48.72336" lon="7.33692">
        <ele>436.64077663739</ele>
        <time>2021-07-07T14:49:23.368Z</time>
      </trkpt>
      <trkpt lat="48.72334" lon="7.33687">
        <ele>436.8332640019</ele>
        <time>2021-07-07T14:49:23.426Z</time>
      </trkpt>
      <trkpt lat="48.72327" lon="7.33684">
        <ele>436.92841559158</ele>
        <time>2021-07-07T14:49:23.487Z</time>
      </trkpt>
      <trkpt lat="48.72316" lon="7.33677">
        <ele>436.93828142645</ele>
        <time>2021-07-07T14:49:23.552Z</time>
      </trkpt>
      <trkpt lat="48.72303" lon="7.33665">
        <ele>436.9038781245</ele>
        <time>2021-07-07T14:49:23.622Z</time>
      </trkpt>
      <trkpt lat="48.7229" lon="7.33655">
        <ele>436.81828841304</ele>
        <time>2021-07-07T14:49:23.697Z</time>
      </trkpt>
      <trkpt lat="48.72285" lon="7.33652">
        <ele>436.64838640636</ele>
        <time>2021-07-07T14:49:23.773Z</time>
      </trkpt>
      <trkpt lat="48.7227" lon="7.33647">
        <ele>436.3582062661</ele>
        <time>2021-07-07T14:49:23.854Z</time>
      </trkpt>
      <trkpt lat="48.72263" lon="7.33644">
        <ele>435.97263208095</ele>
        <time>2021-07-07T14:49:23.938Z</time>
      </trkpt>
      <trkpt lat="48.72257" lon="7.33639">
        <ele>435.49792357305</ele>
        <time>2021-07-07T14:49:24.024Z</time>
      </trkpt>
      <trkpt lat="48.72245" lon="7.33621">
        <ele>434.89006476069</ele>
        <time>2021-07-07T14:49:24.116Z</time>
      </trkpt>
      <trkpt lat="48.7224" lon="7.33618">
        <ele>434.20592838067</ele>
        <time>2021-07-07T14:49:24.210Z</time>
      </trkpt>
      <trkpt lat="48.72226" lon="7.33611">
        <ele>433.41471932635</ele>
        <time>2021-07-07T14:49:24.309Z</time>
      </trkpt>
      <trkpt lat="48.72218" lon="7.33609">
        <ele>432.60595820308</ele>
        <time>2021-07-07T14:49:24.410Z</time>
      </trkpt>
      <trkpt lat="48.72205" lon="7.33607">
        <ele>431.77069529877</ele>
        <time>2021-07-07T14:49:24.516Z</time>
      </trkpt>
      <trkpt lat="48.72193" lon="7.33602">
        <ele>430.92605509169</ele>
        <time>2021-07-07T14:49:24.626Z</time>
      </trkpt>
      <trkpt lat="48.72176" lon="7.33593">
        <ele>430.07724785271</ele>
        <time>2021-07-07T14:49:24.742Z</time>
      </trkpt>
      <trkpt lat="48.72155" lon="7.33577">
        <ele>429.30461063283</ele>
        <time>2021-07-07T14:49:24.866Z</time>
      </trkpt>
      <trkpt lat="48.72152" lon="7.33576">
        <ele>428.680846342</ele>
        <time>2021-07-07T14:49:24.991Z</time>
      </trkpt>
      <trkpt lat="48.72138" lon="7.33567">
        <ele>428.21128906423</ele>
        <time>2021-07-07T14:49:25.121Z</time>
      </trkpt>
      <trkpt lat="48.72135" lon="7.33561">
        <ele>427.92025355775</ele>
        <time>2021-07-07T14:49:25.252Z</time>
      </trkpt>
      <trkpt lat="48.72134" lon="7.33541">
        <ele>427.81716307924</ele>
        <time>2021-07-07T14:49:25.388Z</time>
      </trkpt>
      <trkpt lat="48.72131" lon="7.33539">
        <ele>427.92619441902</ele>
        <time>2021-07-07T14:49:25.525Z</time>
      </trkpt>
      <trkpt lat="48.72108" lon="7.33525">
        <ele>428.30421502753</ele>
        <time>2021-07-07T14:49:25.670Z</time>
      </trkpt>
      <trkpt lat="48.72098" lon="7.33518">
        <ele>428.90101909736</ele>
        <time>2021-07-07T14:49:25.819Z</time>
      </trkpt>
      <trkpt lat="48.72079" lon="7.3351">
        <ele>429.71904459295</ele>
        <time>2021-07-07T14:49:25.974Z</time>
      </trkpt>
      <trkpt lat="48.72059" lon="7.335">
        <ele>430.72722661912</ele>
        <time>2021-07-07T14:49:26.136Z</time>
      </trkpt>
      <trkpt lat="48.72047" lon="7.33493">
        <ele>432.05327065247</ele>
        <time>2021-07-07T14:49:26.303Z</time>
      </trkpt>
      <trkpt lat="48.72043" lon="7.3349">
        <ele>433.6433386727</ele>
        <time>2021-07-07T14:49:26.471Z</time>
      </trkpt>
      <trkpt lat="48.72032" lon="7.33472">
        <ele>435.58470813789</ele>
        <time>2021-07-07T14:49:26.645Z</time>
      </trkpt>
      <trkpt lat="48.72024" lon="7.33462">
        <ele>437.77469448161</ele>
        <time>2021-07-07T14:49:26.822Z</time>
      </trkpt>
      <trkpt lat="48.72019" lon="7.33454">
        <ele>440.08131850281</ele>
        <time>2021-07-07T14:49:27.002Z</time>
      </trkpt>
      <trkpt lat="48.72006" lon="7.33444">
        <ele>442.55757101056</ele>
        <time>2021-07-07T14:49:27.186Z</time>
      </trkpt>
      <trkpt lat="48.71993" lon="7.33436">
        <ele>444.99698473699</ele>
        <time>2021-07-07T14:49:27.375Z</time>
      </trkpt>
      <trkpt lat="48.71984" lon="7.33429">
        <ele>447.31806100287</ele>
        <time>2021-07-07T14:49:27.567Z</time>
      </trkpt>
      <trkpt lat="48.71974" lon="7.33422">
        <ele>449.39506121659</ele>
        <time>2021-07-07T14:49:27.763Z</time>
      </trkpt>
      <trkpt lat="48.71904" lon="7.33314">
        <ele>451.98816775399</ele>
        <time>2021-07-07T14:49:27.992Z</time>
      </trkpt>
      <trkpt lat="48.7185" lon="7.33296">
        <ele>453.26051506451</ele>
        <time>2021-07-07T14:49:28.240Z</time>
      </trkpt>
      <trkpt lat="48.71819" lon="7.33225">
        <ele>454.33840174569</ele>
        <time>2021-07-07T14:49:28.507Z</time>
      </trkpt>
      <trkpt lat="48.71814" lon="7.33187">
        <ele>454.56153380735</ele>
        <time>2021-07-07T14:49:28.782Z</time>
      </trkpt>
      <trkpt lat="48.7178" lon="7.33207">
        <ele>453.78787766143</ele>
        <time>2021-07-07T14:49:29.069Z</time>
      </trkpt>
      <trkpt lat="48.71763" lon="7.33245">
        <ele>452.7111855907</ele>
        <time>2021-07-07T14:49:29.367Z</time>
      </trkpt>
      <trkpt lat="48.71728" lon="7.33255">
        <ele>451.35690075709</ele>
        <time>2021-07-07T14:49:29.676Z</time>
      </trkpt>
      <trkpt lat="48.71721" lon="7.33256">
        <ele>450.30323670604</ele>
        <time>2021-07-07T14:49:29.988Z</time>
      </trkpt>
      <trkpt lat="48.71714" lon="7.33253">
        <ele>449.36538639869</ele>
        <time>2021-07-07T14:49:30.302Z</time>
      </trkpt>
      <trkpt lat="48.71703" lon="7.33251">
        <ele>448.61343876896</ele>
        <time>2021-07-07T14:49:30.620Z</time>
      </trkpt>
      <trkpt lat="48.71689" lon="7.33247">
        <ele>448.15349943602</ele>
        <time>2021-07-07T14:49:30.943Z</time>
      </trkpt>
      <trkpt lat="48.71677" lon="7.33245">
        <ele>447.95448036134</ele>
        <time>2021-07-07T14:49:31.270Z</time>
      </trkpt>
      <trkpt lat="48.71669" lon="7.33241">
        <ele>448.02251779398</ele>
        <time>2021-07-07T14:49:31.600Z</time>
      </trkpt>
      <trkpt lat="48.71655" lon="7.33231">
        <ele>448.41527044542</ele>
        <time>2021-07-07T14:49:31.935Z</time>
      </trkpt>
      <trkpt lat="48.71649" lon="7.33222">
        <ele>448.93109071007</ele>
        <time>2021-07-07T14:49:32.272Z</time>
      </trkpt>
      <trkpt lat="48.7164" lon="7.33214">
        <ele>449.58980690281</ele>
        <time>2021-07-07T14:49:32.613Z</time>
      </trkpt>
      <trkpt lat="48.71616" lon="7.33186">
        <ele>450.31421568999</ele>
        <time>2021-07-07T14:49:32.964Z</time>
      </trkpt>
      <trkpt lat="48.71603" lon="7.33176">
        <ele>450.97602988063</ele>
        <time>2021-07-07T14:49:33.320Z</time>
      </trkpt>
      <trkpt lat="48.71593" lon="7.33169">
        <ele>451.59740297406</ele>
        <time>2021-07-07T14:49:33.680Z</time>
      </trkpt>
      <trkpt lat="48.7158" lon="7.33162">
        <ele>452.17006306064</ele>
        <time>2021-07-07T14:49:34.044Z</time>
      </trkpt>
      <trkpt lat="48.71534" lon="7.3314">
        <ele>452.76545006323</ele>
        <time>2021-07-07T14:49:34.424Z</time>
      </trkpt>
      <trkpt lat="48.71531" lon="7.33137">
        <ele>452.95476459542</ele>
        <time>2021-07-07T14:49:34.806Z</time>
      </trkpt>
      <trkpt lat="48.71522" lon="7.33131">
        <ele>452.87127897875</ele>
        <time>2021-07-07T14:49:35.191Z</time>
      </trkpt>
      <trkpt lat="48.71512" lon="7.33127">
        <ele>452.55366401875</ele>
        <time>2021-07-07T14:49:35.579Z</time>
      </trkpt>
      <trkpt lat="48.71501" lon="7.33124">
        <ele>452.02267998767</ele>
        <time>2021-07-07T14:49:35.971Z</time>
      </trkpt>
      <trkpt lat="48.71491" lon="7.33123">
        <ele>451.28016734355</ele>
        <time>2021-07-07T14:49:36.366Z</time>
      </trkpt>
      <trkpt lat="48.71453" lon="7.33123">
        <ele>450.22959805229</ele>
        <time>2021-07-07T14:49:36.774Z</time>
      </trkpt>
      <trkpt lat="48.71433" lon="7.33127">
        <ele>448.97209830621</ele>
        <time>2021-07-07T14:49:37.189Z</time>
      </trkpt>
      <trkpt lat="48.71393" lon="7.33132">
        <ele>447.32609822291</ele>
        <time>2021-07-07T14:49:37.617Z</time>
      </trkpt>
      <trkpt lat="48.71376" lon="7.33134">
        <ele>445.91008069752</ele>
        <time>2021-07-07T14:49:38.051Z</time>
      </trkpt>
      <trkpt lat="48.71367" lon="7.33132">
        <ele>444.48622660904</ele>
        <time>2021-07-07T14:49:38.488Z</time>
      </trkpt>
      <trkpt lat="48.71341" lon="7.33134">
        <ele>443.13271777263</ele>
        <time>2021-07-07T14:49:38.934Z</time>
      </trkpt>
      <trkpt lat="48.71331" lon="7.33138">
        <ele>441.87598495716</ele>
        <time>2021-07-07T14:49:39.383Z</time>
      </trkpt>
      <trkpt lat="48.71308" lon="7.33143">
        <ele>440.66913630124</ele>
        <time>2021-07-07T14:49:39.840Z</time>
      </trkpt>
      <trkpt lat="48.71301" lon="7.33144">
        <ele>439.65897019919</ele>
        <time>2021-07-07T14:49:40.299Z</time>
      </trkpt>
      <trkpt lat="48.71291" lon="7.33144">
        <ele>438.78133344876</ele>
        <time>2021-07-07T14:49:40.761Z</time>
      </trkpt>
      <trkpt lat="48.71281" lon="7.33142">
        <ele>438.04045052776</ele>
        <time>2021-07-07T14:49:41.227Z</time>
      </trkpt>
      <trkpt lat="48.71265" lon="7.33132">
        <ele>437.40337813211</ele>
        <time>2021-07-07T14:49:41.699Z</time>
      </trkpt>
      <trkpt lat="48.71261" lon="7.33125">
        <ele>436.91043371476</ele>
        <time>2021-07-07T14:49:42.173Z</time>
      </trkpt>
      <trkpt lat="48.7125" lon="7.33123">
        <ele>436.54452587151</ele>
        <time>2021-07-07T14:49:42.650Z</time>
      </trkpt>
      <trkpt lat="48.71244" lon="7.33123">
        <ele>436.28511024413</ele>
        <time>2021-07-07T14:49:43.129Z</time>
      </trkpt>
      <trkpt lat="48.71241" lon="7.33125">
        <ele>436.09609791343</ele>
        <time>2021-07-07T14:49:43.609Z</time>
      </trkpt>
      <trkpt lat="48.71236" lon="7.33129">
        <ele>435.94753162191</ele>
        <time>2021-07-07T14:49:44.091Z</time>
      </trkpt>
      <trkpt lat="48.71225" lon="7.33143">
        <ele>435.82700603238</ele>
        <time>2021-07-07T14:49:44.578Z</time>
      </trkpt>
      <trkpt lat="48.7122" lon="7.33147">
        <ele>435.63265524853</ele>
        <time>2021-07-07T14:49:45.067Z</time>
      </trkpt>
      <trkpt lat="48.71212" lon="7.33153">
        <ele>435.38100021259</ele>
        <time>2021-07-07T14:49:45.559Z</time>
      </trkpt>
      <trkpt lat="48.71182" lon="7.3316">
        <ele>434.95178044851</ele>
        <time>2021-07-07T14:49:46.061Z</time>
      </trkpt>
      <trkpt lat="48.71161" lon="7.33168">
        <ele>434.51907055335</ele>
        <time>2021-07-07T14:49:46.570Z</time>
      </trkpt>
      <trkpt lat="48.71145" lon="7.33177">
        <ele>434.0428625189</ele>
        <time>2021-07-07T14:49:47.085Z</time>
      </trkpt>
      <trkpt lat="48.71107" lon="7.33203">
        <ele>433.46912851243</ele>
        <time>2021-07-07T14:49:47.614Z</time>
      </trkpt>
      <trkpt lat="48.7108" lon="7.33222">
        <ele>432.82319282985</ele>
        <time>2021-07-07T14:49:48.153Z</time>
      </trkpt>
      <trkpt lat="48.71058" lon="7.3324">
        <ele>432.15251458142</ele>
        <time>2021-07-07T14:49:48.700Z</time>
      </trkpt>
      <trkpt lat="48.71034" lon="7.33247">
        <ele>431.3810241005</ele>
        <time>2021-07-07T14:49:49.255Z</time>
      </trkpt>
      <trkpt lat="48.71004" lon="7.33249">
        <ele>430.53826137872</ele>
        <time>2021-07-07T14:49:49.820Z</time>
      </trkpt>
      <trkpt lat="48.70973" lon="7.33245">
        <ele>429.68613718012</ele>
        <time>2021-07-07T14:49:50.396Z</time>
      </trkpt>
      <trkpt lat="48.70909" lon="7.33234">
        <ele>429.08144502184</ele>
        <time>2021-07-07T14:49:50.993Z</time>
      </trkpt>
      <trkpt lat="48.70849" lon="7.33217">
        <ele>428.24321106962</ele>
        <time>2021-07-07T14:49:51.611Z</time>
      </trkpt>
      <trkpt lat="48.70807" lon="7.33189">
        <ele>427.35977946445</ele>
        <time>2021-07-07T14:49:52.244Z</time>
      </trkpt>
      <trkpt lat="48.70767" lon="7.33165">
        <ele>426.64471362102</ele>
        <time>2021-07-07T14:49:52.891Z</time>
      </trkpt>
      <trkpt lat="48.70733" lon="7.33136">
        <ele>425.80054149567</ele>
        <time>2021-07-07T14:49:53.551Z</time>
      </trkpt>
      <trkpt lat="48.70712" lon="7.3311">
        <ele>425.29691951072</ele>
        <time>2021-07-07T14:49:54.220Z</time>
      </trkpt>
      <trkpt lat="48.70688" lon="7.33085">
        <ele>424.97585507687</ele>
        <time>2021-07-07T14:49:54.899Z</time>
      </trkpt>
      <trkpt lat="48.70677" lon="7.33064">
        <ele>425.17134925102</ele>
        <time>2021-07-07T14:49:55.584Z</time>
      </trkpt>
      <trkpt lat="48.70667" lon="7.33054">
        <ele>425.34510098092</ele>
        <time>2021-07-07T14:49:56.273Z</time>
      </trkpt>
      <trkpt lat="48.70636" lon="7.33035">
        <ele>425.66922070776</ele>
        <time>2021-07-07T14:49:56.973Z</time>
      </trkpt>
      <trkpt lat="48.70606" lon="7.3303">
        <ele>425.72016842869</ele>
        <time>2021-07-07T14:49:57.683Z</time>
      </trkpt>
      <trkpt lat="48.70571" lon="7.33027">
        <ele>425.59002539439</ele>
        <time>2021-07-07T14:49:58.405Z</time>
      </trkpt>
      <trkpt lat="48.70539" lon="7.33016">
        <ele>425.81154357124</ele>
        <time>2021-07-07T14:49:59.138Z</time>
      </trkpt>
      <trkpt lat="48.70503" lon="7.33">
        <ele>426.58091312661</ele>
        <time>2021-07-07T14:49:59.883Z</time>
      </trkpt>
      <trkpt lat="48.70472" lon="7.32986">
        <ele>426.84758709425</ele>
        <time>2021-07-07T14:50:00.639Z</time>
      </trkpt>
      <trkpt lat="48.70447" lon="7.32982">
        <ele>426.70676116581</ele>
        <time>2021-07-07T14:50:01.404Z</time>
      </trkpt>
      <trkpt lat="48.70419" lon="7.32971">
        <ele>426.4930235922</ele>
        <time>2021-07-07T14:50:02.178Z</time>
      </trkpt>
      <trkpt lat="48.70392" lon="7.32966">
        <ele>426.09513532213</ele>
        <time>2021-07-07T14:50:02.961Z</time>
      </trkpt>
      <trkpt lat="48.70365" lon="7.32962">
        <ele>425.44539434186</ele>
        <time>2021-07-07T14:50:03.753Z</time>
      </trkpt>
      <trkpt lat="48.7034" lon="7.32962">
        <ele>424.18568431066</ele>
        <time>2021-07-07T14:50:04.554Z</time>
      </trkpt>
      <trkpt lat="48.70307" lon="7.32962">
        <ele>422.62986351138</ele>
        <time>2021-07-07T14:50:05.366Z</time>
      </trkpt>
      <trkpt lat="48.70271" lon="7.32963">
        <ele>421.25233573014</ele>
        <time>2021-07-07T14:50:06.190Z</time>
      </trkpt>
      <trkpt lat="48.7023" lon="7.32968">
        <ele>419.95596622214</ele>
        <time>2021-07-07T14:50:07.027Z</time>
      </trkpt>
      <trkpt lat="48.70196" lon="7.32974">
        <ele>418.41124692119</ele>
        <time>2021-07-07T14:50:07.876Z</time>
      </trkpt>
      <trkpt lat="48.70153" lon="7.32974">
        <ele>416.82696774127</ele>
        <time>2021-07-07T14:50:08.739Z</time>
      </trkpt>
      <trkpt lat="48.70124" lon="7.32977">
        <ele>415.30711954251</ele>
        <time>2021-07-07T14:50:09.612Z</time>
      </trkpt>
      <trkpt lat="48.70109" lon="7.32982">
        <ele>413.71125323988</ele>
        <time>2021-07-07T14:50:10.490Z</time>
      </trkpt>
      <trkpt lat="48.70074" lon="7.32989">
        <ele>412.13487162823</ele>
        <time>2021-07-07T14:50:11.380Z</time>
      </trkpt>
      <trkpt lat="48.70026" lon="7.33012">
        <ele>410.38097669979</ele>
        <time>2021-07-07T14:50:12.287Z</time>
      </trkpt>
      <trkpt lat="48.69994" lon="7.33017">
        <ele>408.84183212694</ele>
        <time>2021-07-07T14:50:13.204Z</time>
      </trkpt>
      <trkpt lat="48.69958" lon="7.33019">
        <ele>407.4206656612</ele>
        <time>2021-07-07T14:50:14.133Z</time>
      </trkpt>
      <trkpt lat="48.6992" lon="7.33017">
        <ele>406.28315908304</ele>
        <time>2021-07-07T14:50:15.075Z</time>
      </trkpt>
      <trkpt lat="48.69892" lon="7.33013">
        <ele>405.02527155819</ele>
        <time>2021-07-07T14:50:16.026Z</time>
      </trkpt>
      <trkpt lat="48.69866" lon="7.33005">
        <ele>403.60897919288</ele>
        <time>2021-07-07T14:50:16.986Z</time>
      </trkpt>
      <trkpt lat="48.69847" lon="7.32993">
        <ele>402.27172563627</ele>
        <time>2021-07-07T14:50:17.953Z</time>
      </trkpt>
      <trkpt lat="48.69824" lon="7.3297">
        <ele>401.03188607314</ele>
        <time>2021-07-07T14:50:18.929Z</time>
      </trkpt>
      <trkpt lat="48.69809" lon="7.32956">
        <ele>399.66951568047</ele>
        <time>2021-07-07T14:50:19.911Z</time>
      </trkpt>
      <trkpt lat="48.69784" lon="7.32927">
        <ele>398.25030182869</ele>
        <time>2021-07-07T14:50:20.904Z</time>
      </trkpt>
      <trkpt lat="48.69759" lon="7.3289">
        <ele>397.0440485263</ele>
        <time>2021-07-07T14:50:21.908Z</time>
      </trkpt>
      <trkpt lat="48.6974" lon="7.32861">
        <ele>395.85099858089</ele>
        <time>2021-07-07T14:50:22.921Z</time>
      </trkpt>
      <trkpt lat="48.6972" lon="7.32828">
        <ele>394.61513589979</ele>
        <time>2021-07-07T14:50:23.944Z</time>
      </trkpt>
      <trkpt lat="48.69711" lon="7.32809">
        <ele>393.61403828489</ele>
        <time>2021-07-07T14:50:24.972Z</time>
      </trkpt>
      <trkpt lat="48.69695" lon="7.32779">
        <ele>392.78911194778</ele>
        <time>2021-07-07T14:50:26.009Z</time>
      </trkpt>
      <trkpt lat="48.69695" lon="7.32779">
        <ele>392.32452962403</ele>
        <time>2021-07-07T14:50:27.046Z</time>
      </trkpt>
      <trkpt lat="48.69682" lon="7.32747">
        <ele>392.49050261303</ele>
        <time>2021-07-07T14:50:28.091Z</time>
      </trkpt>
      <trkpt lat="48.6968" lon="7.32742">
        <ele>393.11620522909</ele>
        <time>2021-07-07T14:50:29.138Z</time>
      </trkpt>
      <trkpt lat="48.69695" lon="7.32757">
        <ele>394.26682744127</ele>
        <time>2021-07-07T14:50:30.191Z</time>
      </trkpt>
      <trkpt lat="48.69708" lon="7.32767">
        <ele>395.74535016815</ele>
        <time>2021-07-07T14:50:31.248Z</time>
      </trkpt>
      <trkpt lat="48.69711" lon="7.3277">
        <ele>397.39743082339</ele>
        <time>2021-07-07T14:50:32.307Z</time>
      </trkpt>
      <trkpt lat="48.69723" lon="7.32783">
        <ele>399.36583851592</ele>
        <time>2021-07-07T14:50:33.371Z</time>
      </trkpt>
      <trkpt lat="48.69737" lon="7.32801">
        <ele>401.52718141239</ele>
        <time>2021-07-07T14:50:34.441Z</time>
      </trkpt>
      <trkpt lat="48.69753" lon="7.32827">
        <ele>403.68825949614</ele>
        <time>2021-07-07T14:50:35.519Z</time>
      </trkpt>
      <trkpt lat="48.69772" lon="7.3286">
        <ele>405.76844777486</ele>
        <time>2021-07-07T14:50:36.606Z</time>
      </trkpt>
      <trkpt lat="48.69781" lon="7.32876">
        <ele>407.60315753773</ele>
        <time>2021-07-07T14:50:37.698Z</time>
      </trkpt>
      <trkpt lat="48.69811" lon="7.32923">
        <ele>409.32471515092</ele>
        <time>2021-07-07T14:50:38.804Z</time>
      </trkpt>
      <trkpt lat="48.69827" lon="7.32944">
        <ele>410.7476893151</ele>
        <time>2021-07-07T14:50:39.917Z</time>
      </trkpt>
      <trkpt lat="48.6983" lon="7.32947">
        <ele>411.82831408243</ele>
        <time>2021-07-07T14:50:41.032Z</time>
      </trkpt>
      <trkpt lat="48.69839" lon="7.32955">
        <ele>412.59438946509</ele>
        <time>2021-07-07T14:50:42.150Z</time>
      </trkpt>
      <trkpt lat="48.69856" lon="7.32966">
        <ele>412.99995107215</ele>
        <time>2021-07-07T14:50:43.274Z</time>
      </trkpt>
      <trkpt lat="48.69839" lon="7.32955">
        <ele>412.59438946509</ele>
        <time>2021-07-07T14:50:44.404Z</time>
      </trkpt>
      <trkpt lat="48.6983" lon="7.32947">
        <ele>411.82831408243</ele>
        <time>2021-07-07T14:50:45.538Z</time>
      </trkpt>
      <trkpt lat="48.69827" lon="7.32944">
        <ele>410.7476893151</ele>
        <time>2021-07-07T14:50:46.673Z</time>
      </trkpt>
      <trkpt lat="48.69811" lon="7.32923">
        <ele>409.32471515092</ele>
        <time>2021-07-07T14:50:47.815Z</time>
      </trkpt>
      <trkpt lat="48.69781" lon="7.32876">
        <ele>407.60315753773</ele>
        <time>2021-07-07T14:50:48.972Z</time>
      </trkpt>
      <trkpt lat="48.69772" lon="7.3286">
        <ele>405.76844777486</ele>
        <time>2021-07-07T14:50:50.133Z</time>
      </trkpt>
      <trkpt lat="48.69737" lon="7.32801">
        <ele>401.52718141239</ele>
        <time>2021-07-07T14:50:51.312Z</time>
      </trkpt>
      <trkpt lat="48.69723" lon="7.32783">
        <ele>399.36583851592</ele>
        <time>2021-07-07T14:50:52.497Z</time>
      </trkpt>
      <trkpt lat="48.69711" lon="7.3277">
        <ele>397.39743082339</ele>
        <time>2021-07-07T14:50:53.687Z</time>
      </trkpt>
      <trkpt lat="48.69708" lon="7.32767">
        <ele>395.74535016815</ele>
        <time>2021-07-07T14:50:54.878Z</time>
      </trkpt>
      <trkpt lat="48.69695" lon="7.32757">
        <ele>394.26682744127</ele>
        <time>2021-07-07T14:50:56.074Z</time>
      </trkpt>
      <trkpt lat="48.6968" lon="7.32742">
        <ele>393.11620522909</ele>
        <time>2021-07-07T14:50:57.276Z</time>
      </trkpt>
      <trkpt lat="48.69674" lon="7.32713">
        <ele>391.11721738608</ele>
        <time>2021-07-07T14:50:58.485Z</time>
      </trkpt>
      <trkpt lat="48.69671" lon="7.32696">
        <ele>389.67091964716</ele>
        <time>2021-07-07T14:50:59.697Z</time>
      </trkpt>
      <trkpt lat="48.69671" lon="7.32692">
        <ele>388.49332461314</ele>
        <time>2021-07-07T14:51:00.910Z</time>
      </trkpt>
      <trkpt lat="48.69671" lon="7.3269">
        <ele>387.5894010892</ele>
        <time>2021-07-07T14:51:02.124Z</time>
      </trkpt>
      <trkpt lat="48.69666" lon="7.32661">
        <ele>387.0245627485</ele>
        <time>2021-07-07T14:51:03.344Z</time>
      </trkpt>
      <trkpt lat="48.69664" lon="7.32657">
        <ele>386.6527016395</ele>
        <time>2021-07-07T14:51:04.565Z</time>
      </trkpt>
      <trkpt lat="48.69659" lon="7.32646">
        <ele>386.53044361044</ele>
        <time>2021-07-07T14:51:05.789Z</time>
      </trkpt>
      <trkpt lat="48.69648" lon="7.3264">
        <ele>386.59617737613</ele>
        <time>2021-07-07T14:51:07.017Z</time>
      </trkpt>
      <trkpt lat="48.69636" lon="7.3264">
        <ele>386.92663537845</ele>
        <time>2021-07-07T14:51:08.249Z</time>
      </trkpt>
      <trkpt lat="48.69627" lon="7.32644">
        <ele>387.50111016089</ele>
        <time>2021-07-07T14:51:09.484Z</time>
      </trkpt>
      <trkpt lat="48.69585" lon="7.3265">
        <ele>388.66512234788</ele>
        <time>2021-07-07T14:51:10.734Z</time>
      </trkpt>
      <trkpt lat="48.69576" lon="7.3265">
        <ele>389.74237716733</ele>
        <time>2021-07-07T14:51:11.987Z</time>
      </trkpt>
      <trkpt lat="48.69565" lon="7.32652">
        <ele>391.01371690996</ele>
        <time>2021-07-07T14:51:13.243Z</time>
      </trkpt>
      <trkpt lat="48.6954" lon="7.32657">
        <ele>392.37923249855</ele>
        <time>2021-07-07T14:51:14.508Z</time>
      </trkpt>
      <trkpt lat="48.69534" lon="7.32658">
        <ele>393.93804255596</ele>
        <time>2021-07-07T14:51:15.775Z</time>
      </trkpt>
      <trkpt lat="48.69525" lon="7.32642">
        <ele>395.79492657244</ele>
        <time>2021-07-07T14:51:17.046Z</time>
      </trkpt>
      <trkpt lat="48.69508" lon="7.32632">
        <ele>397.87540431845</ele>
        <time>2021-07-07T14:51:18.323Z</time>
      </trkpt>
      <trkpt lat="48.69494" lon="7.32627">
        <ele>400.22482330108</ele>
        <time>2021-07-07T14:51:19.605Z</time>
      </trkpt>
      <trkpt lat="48.69464" lon="7.32608">
        <ele>402.97662147079</ele>
        <time>2021-07-07T14:51:20.898Z</time>
      </trkpt>
      <trkpt lat="48.69438" lon="7.32624">
        <ele>405.92512650469</ele>
        <time>2021-07-07T14:51:22.200Z</time>
      </trkpt>
      <trkpt lat="48.69347" lon="7.32612">
        <ele>409.43139671171</ele>
        <time>2021-07-07T14:51:23.533Z</time>
      </trkpt>
      <trkpt lat="48.69281" lon="7.32563">
        <ele>413.14031778713</ele>
        <time>2021-07-07T14:51:24.890Z</time>
      </trkpt>
      <trkpt lat="48.69252" lon="7.32522">
        <ele>416.97088093248</ele>
        <time>2021-07-07T14:51:26.261Z</time>
      </trkpt>
      <trkpt lat="48.69203" lon="7.3246">
        <ele>420.92772534493</ele>
        <time>2021-07-07T14:51:27.653Z</time>
      </trkpt>
      <trkpt lat="48.6915" lon="7.32393">
        <ele>424.96460726046</ele>
        <time>2021-07-07T14:51:29.068Z</time>
      </trkpt>
      <trkpt lat="48.691" lon="7.32333">
        <ele>429.15771910511</ele>
        <time>2021-07-07T14:51:30.504Z</time>
      </trkpt>
      <trkpt lat="48.69062" lon="7.32305">
        <ele>433.16947173229</ele>
        <time>2021-07-07T14:51:31.954Z</time>
      </trkpt>
      <trkpt lat="48.69025" lon="7.32267">
        <ele>437.27639562833</ele>
        <time>2021-07-07T14:51:33.419Z</time>
      </trkpt>
      <trkpt lat="48.68976" lon="7.32219">
        <ele>441.2265397927</ele>
        <time>2021-07-07T14:51:34.904Z</time>
      </trkpt>
      <trkpt lat="48.6892" lon="7.32165">
        <ele>445.03272821537</ele>
        <time>2021-07-07T14:51:36.411Z</time>
      </trkpt>
      <trkpt lat="48.68881" lon="7.32104">
        <ele>448.78675536009</ele>
        <time>2021-07-07T14:51:37.937Z</time>
      </trkpt>
      <trkpt lat="48.68839" lon="7.32044">
        <ele>452.0901947836</ele>
        <time>2021-07-07T14:51:39.482Z</time>
      </trkpt>
      <trkpt lat="48.68797" lon="7.31984">
        <ele>455.28339628482</ele>
        <time>2021-07-07T14:51:41.046Z</time>
      </trkpt>
      <trkpt lat="48.68759" lon="7.31915">
        <ele>458.34227589515</ele>
        <time>2021-07-07T14:51:42.630Z</time>
      </trkpt>
      <trkpt lat="48.68726" lon="7.31849">
        <ele>460.99745342449</ele>
        <time>2021-07-07T14:51:44.232Z</time>
      </trkpt>
      <trkpt lat="48.68718" lon="7.31799">
        <ele>463.34587615064</ele>
        <time>2021-07-07T14:51:45.846Z</time>
      </trkpt>
      <trkpt lat="48.68711" lon="7.31724">
        <ele>465.36819054952</ele>
        <time>2021-07-07T14:51:47.476Z</time>
      </trkpt>
      <trkpt lat="48.68702" lon="7.31669">
        <ele>466.78831566888</ele>
        <time>2021-07-07T14:51:49.119Z</time>
      </trkpt>
      <trkpt lat="48.68696" lon="7.31656">
        <ele>467.78447798583</ele>
        <time>2021-07-07T14:51:50.766Z</time>
      </trkpt>
      <trkpt lat="48.68688" lon="7.31644">
        <ele>468.43755527845</ele>
        <time>2021-07-07T14:51:52.416Z</time>
      </trkpt>
      <trkpt lat="48.68672" lon="7.31627">
        <ele>468.75978472387</ele>
        <time>2021-07-07T14:51:54.073Z</time>
      </trkpt>
      <trkpt lat="48.68655" lon="7.31605">
        <ele>468.92811651375</ele>
        <time>2021-07-07T14:51:55.737Z</time>
      </trkpt>
      <trkpt lat="48.68639" lon="7.31589">
        <ele>469.04655491422</ele>
        <time>2021-07-07T14:51:57.408Z</time>
      </trkpt>
      <trkpt lat="48.6863" lon="7.31582">
        <ele>469.11034420298</ele>
        <time>2021-07-07T14:51:59.082Z</time>
      </trkpt>
      <trkpt lat="48.68622" lon="7.31579">
        <ele>469.16304094761</ele>
        <time>2021-07-07T14:52:00.759Z</time>
      </trkpt>
      <trkpt lat="48.68624" lon="7.31571">
        <ele>469.31587309449</ele>
        <time>2021-07-07T14:52:02.438Z</time>
      </trkpt>
      <trkpt lat="48.68597" lon="7.31563">
        <ele>469.42283748612</ele>
        <time>2021-07-07T14:52:04.126Z</time>
      </trkpt>
      <trkpt lat="48.68567" lon="7.3155">
        <ele>469.69745401701</ele>
        <time>2021-07-07T14:52:05.824Z</time>
      </trkpt>
      <trkpt lat="48.68515" lon="7.31527">
        <ele>470.34404479274</ele>
        <time>2021-07-07T14:52:07.540Z</time>
      </trkpt>
      <trkpt lat="48.68485" lon="7.31514">
        <ele>471.06424606516</ele>
        <time>2021-07-07T14:52:09.267Z</time>
      </trkpt>
      <trkpt lat="48.68465" lon="7.31518">
        <ele>471.67163124906</ele>
        <time>2021-07-07T14:52:11.000Z</time>
      </trkpt>
      <trkpt lat="48.68436" lon="7.31496">
        <ele>472.35251686752</ele>
        <time>2021-07-07T14:52:12.744Z</time>
      </trkpt>
      <trkpt lat="48.68407" lon="7.31479">
        <ele>473.00259076943</ele>
        <time>2021-07-07T14:52:14.499Z</time>
      </trkpt>
      <trkpt lat="48.68283" lon="7.31368">
        <ele>473.5337520213</ele>
        <time>2021-07-07T14:52:16.302Z</time>
      </trkpt>
      <trkpt lat="48.68231" lon="7.31323">
        <ele>473.97342241928</ele>
        <time>2021-07-07T14:52:18.125Z</time>
      </trkpt>
      <trkpt lat="48.68221" lon="7.31301">
        <ele>474.49104606479</ele>
        <time>2021-07-07T14:52:19.954Z</time>
      </trkpt>
      <trkpt lat="48.68209" lon="7.3127">
        <ele>475.08593437745</ele>
        <time>2021-07-07T14:52:21.791Z</time>
      </trkpt>
      <trkpt lat="48.68206" lon="7.31262">
        <ele>475.83694578581</ele>
        <time>2021-07-07T14:52:23.630Z</time>
      </trkpt>
      <trkpt lat="48.68192" lon="7.31234">
        <ele>476.74624199265</ele>
        <time>2021-07-07T14:52:25.476Z</time>
      </trkpt>
      <trkpt lat="48.68183" lon="7.31219">
        <ele>477.81622085281</ele>
        <time>2021-07-07T14:52:27.327Z</time>
      </trkpt>
      <trkpt lat="48.68167" lon="7.31189">
        <ele>479.08299200655</ele>
        <time>2021-07-07T14:52:29.186Z</time>
      </trkpt>
      <trkpt lat="48.68165" lon="7.31187">
        <ele>480.54297150043</ele>
        <time>2021-07-07T14:52:31.046Z</time>
      </trkpt>
      <trkpt lat="48.68149" lon="7.31161">
        <ele>482.31526196649</ele>
        <time>2021-07-07T14:52:32.914Z</time>
      </trkpt>
      <trkpt lat="48.68128" lon="7.31156">
        <ele>484.27303495245</ele>
        <time>2021-07-07T14:52:34.789Z</time>
      </trkpt>
      <trkpt lat="48.68082" lon="7.31098">
        <ele>486.56095691043</ele>
        <time>2021-07-07T14:52:36.684Z</time>
      </trkpt>
      <trkpt lat="48.68064" lon="7.31074">
        <ele>488.53936657564</ele>
        <time>2021-07-07T14:52:38.587Z</time>
      </trkpt>
      <trkpt lat="48.68049" lon="7.31053">
        <ele>490.51199947032</ele>
        <time>2021-07-07T14:52:40.497Z</time>
      </trkpt>
      <trkpt lat="48.68029" lon="7.30994">
        <ele>492.59307676524</ele>
        <time>2021-07-07T14:52:42.422Z</time>
      </trkpt>
      <trkpt lat="48.68028" lon="7.3099">
        <ele>494.35421679173</ele>
        <time>2021-07-07T14:52:44.348Z</time>
      </trkpt>
      <trkpt lat="48.68034" lon="7.3091">
        <ele>496.04449825129</ele>
        <time>2021-07-07T14:52:46.291Z</time>
      </trkpt>
      <trkpt lat="48.6804" lon="7.30892">
        <ele>497.55155236271</ele>
        <time>2021-07-07T14:52:48.239Z</time>
      </trkpt>
      <trkpt lat="48.68045" lon="7.30878">
        <ele>498.93150170461</ele>
        <time>2021-07-07T14:52:50.190Z</time>
      </trkpt>
      <trkpt lat="48.6805" lon="7.30869">
        <ele>500.13502180257</ele>
        <time>2021-07-07T14:52:52.144Z</time>
      </trkpt>
      <trkpt lat="48.6806" lon="7.30845">
        <ele>501.18733545064</ele>
        <time>2021-07-07T14:52:54.104Z</time>
      </trkpt>
      <trkpt lat="48.68069" lon="7.30774">
        <ele>502.25136371701</ele>
        <time>2021-07-07T14:52:56.080Z</time>
      </trkpt>
      <trkpt lat="48.68062" lon="7.30673">
        <ele>503.15578196198</ele>
        <time>2021-07-07T14:52:58.079Z</time>
      </trkpt>
      <trkpt lat="48.68043" lon="7.30614">
        <ele>503.95643325655</ele>
        <time>2021-07-07T14:53:00.092Z</time>
      </trkpt>
      <trkpt lat="48.68023" lon="7.30551">
        <ele>504.74792833621</ele>
        <time>2021-07-07T14:53:02.120Z</time>
      </trkpt>
      <trkpt lat="48.68004" lon="7.30501">
        <ele>505.49716986123</ele>
        <time>2021-07-07T14:53:04.161Z</time>
      </trkpt>
      <trkpt lat="48.67995" lon="7.3048">
        <ele>506.10773650509</ele>
        <time>2021-07-07T14:53:06.208Z</time>
      </trkpt>
      <trkpt lat="48.67977" lon="7.30432">
        <ele>506.67619346743</ele>
        <time>2021-07-07T14:53:08.267Z</time>
      </trkpt>
      <trkpt lat="48.6797" lon="7.30416">
        <ele>507.03265364616</ele>
        <time>2021-07-07T14:53:10.330Z</time>
      </trkpt>
      <trkpt lat="48.67951" lon="7.30377">
        <ele>507.26526862455</ele>
        <time>2021-07-07T14:53:12.404Z</time>
      </trkpt>
      <trkpt lat="48.67951" lon="7.30377">
        <ele>507.41959195376</ele>
        <time>2021-07-07T14:53:14.478Z</time>
      </trkpt>
      <trkpt lat="48.67951" lon="7.30377">
        <ele>507.48180058612</ele>
        <time>2021-07-07T14:53:16.552Z</time>
      </trkpt>
      <trkpt lat="48.67938" lon="7.30355">
        <ele>507.53562915376</ele>
        <time>2021-07-07T14:53:18.632Z</time>
      </trkpt>
      <trkpt lat="48.67902" lon="7.30282">
        <ele>507.35237481084</ele>
        <time>2021-07-07T14:53:20.732Z</time>
      </trkpt>
      <trkpt lat="48.67891" lon="7.30264">
        <ele>507.10362650374</ele>
        <time>2021-07-07T14:53:22.838Z</time>
      </trkpt>
      <trkpt lat="48.67884" lon="7.3025">
        <ele>506.81454439409</ele>
        <time>2021-07-07T14:53:24.948Z</time>
      </trkpt>
      <trkpt lat="48.67879" lon="7.30241">
        <ele>506.56695368992</ele>
        <time>2021-07-07T14:53:27.060Z</time>
      </trkpt>
      <trkpt lat="48.67869" lon="7.30228">
        <ele>506.38436253535</ele>
        <time>2021-07-07T14:53:29.177Z</time>
      </trkpt>
      <trkpt lat="48.67843" lon="7.30178">
        <ele>506.29442985963</ele>
        <time>2021-07-07T14:53:31.308Z</time>
      </trkpt>
      <trkpt lat="48.67834" lon="7.30162">
        <ele>506.08922601056</ele>
        <time>2021-07-07T14:53:33.443Z</time>
      </trkpt>
      <trkpt lat="48.6783" lon="7.30154">
        <ele>505.72293363271</ele>
        <time>2021-07-07T14:53:35.581Z</time>
      </trkpt>
      <trkpt lat="48.67829" lon="7.30148">
        <ele>505.2111004053</ele>
        <time>2021-07-07T14:53:37.720Z</time>
      </trkpt>
      <trkpt lat="48.67831" lon="7.30125">
        <ele>504.36713345024</ele>
        <time>2021-07-07T14:53:39.864Z</time>
      </trkpt>
      <trkpt lat="48.67823" lon="7.30103">
        <ele>503.83432004223</ele>
        <time>2021-07-07T14:53:42.014Z</time>
      </trkpt>
      <trkpt lat="48.67819" lon="7.3009">
        <ele>503.27350665862</ele>
        <time>2021-07-07T14:53:44.167Z</time>
      </trkpt>
      <trkpt lat="48.6781" lon="7.30063">
        <ele>502.66260791389</ele>
        <time>2021-07-07T14:53:46.327Z</time>
      </trkpt>
      <trkpt lat="48.67786" lon="7.2998">
        <ele>502.05865263765</ele>
        <time>2021-07-07T14:53:48.507Z</time>
      </trkpt>
      <trkpt lat="48.67779" lon="7.29962">
        <ele>501.57564499251</ele>
        <time>2021-07-07T14:53:50.691Z</time>
      </trkpt>
      <trkpt lat="48.67762" lon="7.29932">
        <ele>501.18142039062</ele>
        <time>2021-07-07T14:53:52.884Z</time>
      </trkpt>
      <trkpt lat="48.67745" lon="7.29903">
        <ele>500.91975892092</ele>
        <time>2021-07-07T14:53:55.085Z</time>
      </trkpt>
      <trkpt lat="48.67736" lon="7.2989">
        <ele>500.74921530918</ele>
        <time>2021-07-07T14:53:57.291Z</time>
      </trkpt>
      <trkpt lat="48.67724" lon="7.29875">
        <ele>500.67123591092</ele>
        <time>2021-07-07T14:53:59.502Z</time>
      </trkpt>
      <trkpt lat="48.67705" lon="7.29845">
        <ele>500.69387934179</ele>
        <time>2021-07-07T14:54:01.722Z</time>
      </trkpt>
      <trkpt lat="48.67688" lon="7.29813">
        <ele>500.62026703452</ele>
        <time>2021-07-07T14:54:03.951Z</time>
      </trkpt>
      <trkpt lat="48.67678" lon="7.29792">
        <ele>500.45452655709</ele>
        <time>2021-07-07T14:54:06.186Z</time>
      </trkpt>
      <trkpt lat="48.67669" lon="7.2977">
        <ele>500.27828898333</ele>
        <time>2021-07-07T14:54:08.426Z</time>
      </trkpt>
      <trkpt lat="48.67661" lon="7.29744">
        <ele>500.09686997301</ele>
        <time>2021-07-07T14:54:10.673Z</time>
      </trkpt>
      <trkpt lat="48.67656" lon="7.29724">
        <ele>500.00542098813</ele>
        <time>2021-07-07T14:54:12.925Z</time>
      </trkpt>
      <trkpt lat="48.67654" lon="7.29708">
        <ele>499.87930826526</ele>
        <time>2021-07-07T14:54:15.180Z</time>
      </trkpt>
      <trkpt lat="48.67654" lon="7.29686">
        <ele>499.81876750744</ele>
        <time>2021-07-07T14:54:17.440Z</time>
      </trkpt>
      <trkpt lat="48.67655" lon="7.29666">
        <ele>499.87753159519</ele>
        <time>2021-07-07T14:54:19.704Z</time>
      </trkpt>
      <trkpt lat="48.67659" lon="7.29636">
        <ele>500.08116346059</ele>
        <time>2021-07-07T14:54:21.975Z</time>
      </trkpt>
      <trkpt lat="48.6766" lon="7.29629">
        <ele>500.55905561621</ele>
        <time>2021-07-07T14:54:24.248Z</time>
      </trkpt>
      <trkpt lat="48.67664" lon="7.29611">
        <ele>501.24855412249</ele>
        <time>2021-07-07T14:54:26.525Z</time>
      </trkpt>
      <trkpt lat="48.67672" lon="7.2958">
        <ele>502.15220251739</ele>
        <time>2021-07-07T14:54:28.809Z</time>
      </trkpt>
      <trkpt lat="48.67699" lon="7.29505">
        <ele>503.58477434761</ele>
        <time>2021-07-07T14:54:31.112Z</time>
      </trkpt>
      <trkpt lat="48.67699" lon="7.29478">
        <ele>505.45779679512</ele>
        <time>2021-07-07T14:54:33.421Z</time>
      </trkpt>
      <trkpt lat="48.67701" lon="7.29452">
        <ele>507.46096255671</ele>
        <time>2021-07-07T14:54:35.736Z</time>
      </trkpt>
      <trkpt lat="48.67705" lon="7.29417">
        <ele>509.68324089919</ele>
        <time>2021-07-07T14:54:38.059Z</time>
      </trkpt>
      <trkpt lat="48.67708" lon="7.29404">
        <ele>512.06704954442</ele>
        <time>2021-07-07T14:54:40.385Z</time>
      </trkpt>
      <trkpt lat="48.67726" lon="7.29359">
        <ele>514.69943308194</ele>
        <time>2021-07-07T14:54:42.722Z</time>
      </trkpt>
      <trkpt lat="48.67739" lon="7.29305">
        <ele>517.43930830046</ele>
        <time>2021-07-07T14:54:45.072Z</time>
      </trkpt>
      <trkpt lat="48.67748" lon="7.29279">
        <ele>519.9279161826</ele>
        <time>2021-07-07T14:54:47.429Z</time>
      </trkpt>
      <trkpt lat="48.67754" lon="7.29269">
        <ele>522.1836954961</ele>
        <time>2021-07-07T14:54:49.789Z</time>
      </trkpt>
      <trkpt lat="48.67756" lon="7.29261">
        <ele>524.29543302719</ele>
        <time>2021-07-07T14:54:52.150Z</time>
      </trkpt>
      <trkpt lat="48.67765" lon="7.29244">
        <ele>526.19043468108</ele>
        <time>2021-07-07T14:54:54.516Z</time>
      </trkpt>
      <trkpt lat="48.67766" lon="7.29234">
        <ele>527.87814910279</ele>
        <time>2021-07-07T14:54:56.884Z</time>
      </trkpt>
      <trkpt lat="48.67766" lon="7.29227">
        <ele>529.28943492696</ele>
        <time>2021-07-07T14:54:59.254Z</time>
      </trkpt>
      <trkpt lat="48.67764" lon="7.29217">
        <ele>530.46296271832</ele>
        <time>2021-07-07T14:55:01.626Z</time>
      </trkpt>
      <trkpt lat="48.6776" lon="7.29203">
        <ele>531.3161004477</ele>
        <time>2021-07-07T14:55:04.002Z</time>
      </trkpt>
      <trkpt lat="48.67756" lon="7.29195">
        <ele>531.85181277989</ele>
        <time>2021-07-07T14:55:06.380Z</time>
      </trkpt>
      <trkpt lat="48.67751" lon="7.29168">
        <ele>532.02100450156</ele>
        <time>2021-07-07T14:55:08.764Z</time>
      </trkpt>
      <trkpt lat="48.67749" lon="7.29163">
        <ele>531.91205318188</ele>
        <time>2021-07-07T14:55:11.149Z</time>
      </trkpt>
      <trkpt lat="48.67737" lon="7.29156">
        <ele>531.54023153116</ele>
        <time>2021-07-07T14:55:13.539Z</time>
      </trkpt>
      <trkpt lat="48.67719" lon="7.29135">
        <ele>530.83530831746</ele>
        <time>2021-07-07T14:55:15.936Z</time>
      </trkpt>
      <trkpt lat="48.6771" lon="7.29126">
        <ele>530.04300636331</ele>
        <time>2021-07-07T14:55:18.337Z</time>
      </trkpt>
      <trkpt lat="48.67704" lon="7.29121">
        <ele>529.17353510217</ele>
        <time>2021-07-07T14:55:20.740Z</time>
      </trkpt>
      <trkpt lat="48.67703" lon="7.2912">
        <ele>528.27436023542</ele>
        <time>2021-07-07T14:55:23.144Z</time>
      </trkpt>
      <trkpt lat="48.67693" lon="7.29107">
        <ele>527.28965751026</ele>
        <time>2021-07-07T14:55:25.552Z</time>
      </trkpt>
      <trkpt lat="48.67691" lon="7.29106">
        <ele>526.39884244557</ele>
        <time>2021-07-07T14:55:27.961Z</time>
      </trkpt>
      <trkpt lat="48.67676" lon="7.29097">
        <ele>525.57726888182</ele>
        <time>2021-07-07T14:55:30.375Z</time>
      </trkpt>
      <trkpt lat="48.67656" lon="7.29088">
        <ele>524.81823059189</ele>
        <time>2021-07-07T14:55:32.796Z</time>
      </trkpt>
      <trkpt lat="48.67622" lon="7.29081">
        <ele>524.14400439973</ele>
        <time>2021-07-07T14:55:35.228Z</time>
      </trkpt>
      <trkpt lat="48.67611" lon="7.2908">
        <ele>523.53489270638</ele>
        <time>2021-07-07T14:55:37.664Z</time>
      </trkpt>
      <trkpt lat="48.67597" lon="7.2908">
        <ele>522.98907550163</ele>
        <time>2021-07-07T14:55:40.105Z</time>
      </trkpt>
      <trkpt lat="48.67588" lon="7.29081">
        <ele>522.60919446904</ele>
        <time>2021-07-07T14:55:42.549Z</time>
      </trkpt>
      <trkpt lat="48.67573" lon="7.29086">
        <ele>522.41034405575</ele>
        <time>2021-07-07T14:55:44.998Z</time>
      </trkpt>
      <trkpt lat="48.67564" lon="7.29087">
        <ele>522.34578142438</ele>
        <time>2021-07-07T14:55:47.450Z</time>
      </trkpt>
      <trkpt lat="48.67558" lon="7.2909">
        <ele>522.47339764948</ele>
        <time>2021-07-07T14:55:49.904Z</time>
      </trkpt>
      <trkpt lat="48.67532" lon="7.29093">
        <ele>522.79739002153</ele>
        <time>2021-07-07T14:55:52.367Z</time>
      </trkpt>
      <trkpt lat="48.6752" lon="7.29091">
        <ele>523.16685759622</ele>
        <time>2021-07-07T14:55:54.834Z</time>
      </trkpt>
      <trkpt lat="48.67513" lon="7.29091">
        <ele>523.64457028857</ele>
        <time>2021-07-07T14:55:57.303Z</time>
      </trkpt>
      <trkpt lat="48.675" lon="7.29095">
        <ele>524.25712573173</ele>
        <time>2021-07-07T14:55:59.777Z</time>
      </trkpt>
      <trkpt lat="48.67493" lon="7.29095">
        <ele>524.87725026202</ele>
        <time>2021-07-07T14:56:02.253Z</time>
      </trkpt>
      <trkpt lat="48.67488" lon="7.29094">
        <ele>525.50919293645</ele>
        <time>2021-07-07T14:56:04.731Z</time>
      </trkpt>
      <trkpt lat="48.67476" lon="7.29091">
        <ele>526.16154949232</ele>
        <time>2021-07-07T14:56:07.213Z</time>
      </trkpt>
      <trkpt lat="48.67468" lon="7.29088">
        <ele>526.78432797892</ele>
        <time>2021-07-07T14:56:09.697Z</time>
      </trkpt>
      <trkpt lat="48.67455" lon="7.29078">
        <ele>527.32714331349</ele>
        <time>2021-07-07T14:56:12.186Z</time>
      </trkpt>
      <trkpt lat="48.67448" lon="7.29073">
        <ele>527.84796795919</ele>
        <time>2021-07-07T14:56:14.678Z</time>
      </trkpt>
      <trkpt lat="48.67436" lon="7.29061">
        <ele>528.35916736833</ele>
        <time>2021-07-07T14:56:17.175Z</time>
      </trkpt>
      <trkpt lat="48.67413" lon="7.29033">
        <ele>528.76202302147</ele>
        <time>2021-07-07T14:56:19.682Z</time>
      </trkpt>
      <trkpt lat="48.67405" lon="7.29025">
        <ele>529.04697475621</ele>
        <time>2021-07-07T14:56:22.192Z</time>
      </trkpt>
      <trkpt lat="48.67395" lon="7.29012">
        <ele>529.21969558053</ele>
        <time>2021-07-07T14:56:24.706Z</time>
      </trkpt>
      <trkpt lat="48.67384" lon="7.28994">
        <ele>529.33128515081</ele>
        <time>2021-07-07T14:56:27.226Z</time>
      </trkpt>
      <trkpt lat="48.67377" lon="7.28979">
        <ele>529.34770853656</ele>
        <time>2021-07-07T14:56:29.750Z</time>
      </trkpt>
      <trkpt lat="48.67361" lon="7.28944">
        <ele>529.24202915555</ele>
        <time>2021-07-07T14:56:32.283Z</time>
      </trkpt>
      <trkpt lat="48.67354" lon="7.28932">
        <ele>529.19160717005</ele>
        <time>2021-07-07T14:56:34.820Z</time>
      </trkpt>
      <trkpt lat="48.67353" lon="7.28931">
        <ele>529.10231219412</ele>
        <time>2021-07-07T14:56:37.357Z</time>
      </trkpt>
      <trkpt lat="48.6735" lon="7.28924">
        <ele>528.96067196758</ele>
        <time>2021-07-07T14:56:39.896Z</time>
      </trkpt>
      <trkpt lat="48.67349" lon="7.28921">
        <ele>528.76162514146</ele>
        <time>2021-07-07T14:56:42.435Z</time>
      </trkpt>
      <trkpt lat="48.67342" lon="7.28909">
        <ele>528.52539143672</ele>
        <time>2021-07-07T14:56:44.978Z</time>
      </trkpt>
      <trkpt lat="48.67328" lon="7.28891">
        <ele>528.29200850966</ele>
        <time>2021-07-07T14:56:47.527Z</time>
      </trkpt>
      <trkpt lat="48.67287" lon="7.28861">
        <ele>527.89908536054</ele>
        <time>2021-07-07T14:56:50.091Z</time>
      </trkpt>
      <trkpt lat="48.67255" lon="7.2884">
        <ele>527.28943695062</ele>
        <time>2021-07-07T14:56:52.667Z</time>
      </trkpt>
      <trkpt lat="48.67227" lon="7.28826">
        <ele>526.56184453368</ele>
        <time>2021-07-07T14:56:55.253Z</time>
      </trkpt>
      <trkpt lat="48.67203" lon="7.28813">
        <ele>525.66771601936</ele>
        <time>2021-07-07T14:56:57.847Z</time>
      </trkpt>
      <trkpt lat="48.67192" lon="7.28809">
        <ele>524.77496916192</ele>
        <time>2021-07-07T14:57:00.445Z</time>
      </trkpt>
      <trkpt lat="48.67168" lon="7.28797">
        <ele>523.77035389644</ele>
        <time>2021-07-07T14:57:03.052Z</time>
      </trkpt>
      <trkpt lat="48.67158" lon="7.28789">
        <ele>522.70214192478</ele>
        <time>2021-07-07T14:57:05.662Z</time>
      </trkpt>
      <trkpt lat="48.67128" lon="7.28777">
        <ele>521.61583854834</ele>
        <time>2021-07-07T14:57:08.283Z</time>
      </trkpt>
      <trkpt lat="48.67115" lon="7.28773">
        <ele>520.61061523773</ele>
        <time>2021-07-07T14:57:10.908Z</time>
      </trkpt>
      <trkpt lat="48.67099" lon="7.28766">
        <ele>519.60202333207</ele>
        <time>2021-07-07T14:57:13.539Z</time>
      </trkpt>
      <trkpt lat="48.6707" lon="7.2876">
        <ele>518.75508274609</ele>
        <time>2021-07-07T14:57:16.179Z</time>
      </trkpt>
      <trkpt lat="48.67055" lon="7.28757">
        <ele>518.04364327579</ele>
        <time>2021-07-07T14:57:18.824Z</time>
      </trkpt>
      <trkpt lat="48.67015" lon="7.28751">
        <ele>517.47178615655</ele>
        <time>2021-07-07T14:57:21.483Z</time>
      </trkpt>
      <trkpt lat="48.67011" lon="7.28751">
        <ele>517.09505252573</ele>
        <time>2021-07-07T14:57:24.143Z</time>
      </trkpt>
      <trkpt lat="48.67005" lon="7.2875">
        <ele>516.90332867437</ele>
        <time>2021-07-07T14:57:26.805Z</time>
      </trkpt>
      <trkpt lat="48.66996" lon="7.28747">
        <ele>516.90467271099</ele>
        <time>2021-07-07T14:57:29.470Z</time>
      </trkpt>
      <trkpt lat="48.66988" lon="7.28743">
        <ele>517.10630562801</ele>
        <time>2021-07-07T14:57:32.138Z</time>
      </trkpt>
      <trkpt lat="48.66941" lon="7.28726">
        <ele>517.57673701208</ele>
        <time>2021-07-07T14:57:34.822Z</time>
      </trkpt>
      <trkpt lat="48.66933" lon="7.28723">
        <ele>518.24717285217</ele>
        <time>2021-07-07T14:57:37.509Z</time>
      </trkpt>
      <trkpt lat="48.66915" lon="7.28708">
        <ele>519.15635262425</ele>
        <time>2021-07-07T14:57:40.203Z</time>
      </trkpt>
      <trkpt lat="48.66904" lon="7.28705">
        <ele>520.26776360513</ele>
        <time>2021-07-07T14:57:42.901Z</time>
      </trkpt>
      <trkpt lat="48.66893" lon="7.28695">
        <ele>521.49514845012</ele>
        <time>2021-07-07T14:57:45.603Z</time>
      </trkpt>
      <trkpt lat="48.6689" lon="7.28688">
        <ele>522.75747649845</ele>
        <time>2021-07-07T14:57:48.307Z</time>
      </trkpt>
      <trkpt lat="48.66882" lon="7.28671">
        <ele>524.17618873049</ele>
        <time>2021-07-07T14:57:51.015Z</time>
      </trkpt>
      <trkpt lat="48.66876" lon="7.28659">
        <ele>525.65355261724</ele>
        <time>2021-07-07T14:57:53.727Z</time>
      </trkpt>
      <trkpt lat="48.66874" lon="7.28657">
        <ele>527.15823831175</ele>
        <time>2021-07-07T14:57:56.439Z</time>
      </trkpt>
      <trkpt lat="48.66862" lon="7.28634">
        <ele>528.80287358202</ele>
        <time>2021-07-07T14:57:59.158Z</time>
      </trkpt>
      <trkpt lat="48.66846" lon="7.28593">
        <ele>530.41033162705</ele>
        <time>2021-07-07T14:58:01.887Z</time>
      </trkpt>
      <trkpt lat="48.66842" lon="7.28578">
        <ele>531.95192470739</ele>
        <time>2021-07-07T14:58:04.620Z</time>
      </trkpt>
      <trkpt lat="48.66836" lon="7.28548">
        <ele>533.45685700528</ele>
        <time>2021-07-07T14:58:07.360Z</time>
      </trkpt>
      <trkpt lat="48.66833" lon="7.28534">
        <ele>534.93197630258</ele>
        <time>2021-07-07T14:58:10.103Z</time>
      </trkpt>
      <trkpt lat="48.66826" lon="7.28514">
        <ele>536.37050717325</ele>
        <time>2021-07-07T14:58:12.851Z</time>
      </trkpt>
      <trkpt lat="48.66809" lon="7.28496">
        <ele>537.78078636984</ele>
        <time>2021-07-07T14:58:15.606Z</time>
      </trkpt>
      <trkpt lat="48.66801" lon="7.28491">
        <ele>538.95370669907</ele>
        <time>2021-07-07T14:58:18.364Z</time>
      </trkpt>
      <trkpt lat="48.66793" lon="7.28483">
        <ele>539.97829418199</ele>
        <time>2021-07-07T14:58:21.125Z</time>
      </trkpt>
      <trkpt lat="48.66786" lon="7.28475">
        <ele>540.84721377582</ele>
        <time>2021-07-07T14:58:23.889Z</time>
      </trkpt>
      <trkpt lat="48.6677" lon="7.28464">
        <ele>541.58203374892</ele>
        <time>2021-07-07T14:58:26.659Z</time>
      </trkpt>
      <trkpt lat="48.66763" lon="7.28461">
        <ele>542.13249167884</ele>
        <time>2021-07-07T14:58:29.431Z</time>
      </trkpt>
      <trkpt lat="48.66758" lon="7.28458">
        <ele>542.51885133792</ele>
        <time>2021-07-07T14:58:32.205Z</time>
      </trkpt>
      <trkpt lat="48.6675" lon="7.28449">
        <ele>542.73784289178</ele>
        <time>2021-07-07T14:58:34.983Z</time>
      </trkpt>
      <trkpt lat="48.66737" lon="7.28435">
        <ele>542.79587602049</ele>
        <time>2021-07-07T14:58:37.766Z</time>
      </trkpt>
      <trkpt lat="48.66719" lon="7.28412">
        <ele>542.75704577228</ele>
        <time>2021-07-07T14:58:40.557Z</time>
      </trkpt>
      <trkpt lat="48.66688" lon="7.2838">
        <ele>542.75329434145</ele>
        <time>2021-07-07T14:58:43.360Z</time>
      </trkpt>
      <trkpt lat="48.66666" lon="7.28361">
        <ele>542.56165345196</ele>
        <time>2021-07-07T14:58:46.172Z</time>
      </trkpt>
      <trkpt lat="48.66642" lon="7.28341">
        <ele>542.15214521767</ele>
        <time>2021-07-07T14:58:48.993Z</time>
      </trkpt>
      <trkpt lat="48.66622" lon="7.2832">
        <ele>541.62348365831</ele>
        <time>2021-07-07T14:58:51.822Z</time>
      </trkpt>
      <trkpt lat="48.66611" lon="7.28309">
        <ele>541.15461831438</ele>
        <time>2021-07-07T14:58:54.655Z</time>
      </trkpt>
      <trkpt lat="48.66599" lon="7.28298">
        <ele>540.74908235898</ele>
        <time>2021-07-07T14:58:57.493Z</time>
      </trkpt>
      <trkpt lat="48.66581" lon="7.28276">
        <ele>540.36229153481</ele>
        <time>2021-07-07T14:59:00.339Z</time>
      </trkpt>
      <trkpt lat="48.6657" lon="7.28271">
        <ele>540.15522888832</ele>
        <time>2021-07-07T14:59:03.189Z</time>
      </trkpt>
      <trkpt lat="48.66568" lon="7.28271">
        <ele>540.01862037904</ele>
        <time>2021-07-07T14:59:06.039Z</time>
      </trkpt>
      <trkpt lat="48.66561" lon="7.28265">
        <ele>539.9859781445</ele>
        <time>2021-07-07T14:59:08.892Z</time>
      </trkpt>
      <trkpt lat="48.66552" lon="7.28256">
        <ele>540.06300090603</ele>
        <time>2021-07-07T14:59:11.749Z</time>
      </trkpt>
      <trkpt lat="48.66536" lon="7.28237">
        <ele>540.24837745567</ele>
        <time>2021-07-07T14:59:14.612Z</time>
      </trkpt>
      <trkpt lat="48.66527" lon="7.28227">
        <ele>540.57826944328</ele>
        <time>2021-07-07T14:59:17.479Z</time>
      </trkpt>
      <trkpt lat="48.66512" lon="7.28206">
        <ele>541.03046180935</ele>
        <time>2021-07-07T14:59:20.353Z</time>
      </trkpt>
      <trkpt lat="48.66487" lon="7.28163">
        <ele>541.63112341597</ele>
        <time>2021-07-07T14:59:23.240Z</time>
      </trkpt>
      <trkpt lat="48.6647" lon="7.28128">
        <ele>542.23569597299</ele>
        <time>2021-07-07T14:59:26.136Z</time>
      </trkpt>
      <trkpt lat="48.66464" lon="7.28112">
        <ele>542.85085731025</ele>
        <time>2021-07-07T14:59:29.036Z</time>
      </trkpt>
      <trkpt lat="48.66461" lon="7.28104">
        <ele>543.45997493532</ele>
        <time>2021-07-07T14:59:31.938Z</time>
      </trkpt>
      <trkpt lat="48.66451" lon="7.28066">
        <ele>544.00554227107</ele>
        <time>2021-07-07T14:59:34.849Z</time>
      </trkpt>
      <trkpt lat="48.66447" lon="7.28054">
        <ele>544.5796014784</ele>
        <time>2021-07-07T14:59:37.763Z</time>
      </trkpt>
      <trkpt lat="48.6644" lon="7.28039">
        <ele>545.15018264933</ele>
        <time>2021-07-07T14:59:40.681Z</time>
      </trkpt>
      <trkpt lat="48.66434" lon="7.28027">
        <ele>545.69544298591</ele>
        <time>2021-07-07T14:59:43.603Z</time>
      </trkpt>
      <trkpt lat="48.6643" lon="7.28019">
        <ele>546.18221817514</ele>
        <time>2021-07-07T14:59:46.527Z</time>
      </trkpt>
      <trkpt lat="48.66421" lon="7.28003">
        <ele>546.62459556163</ele>
        <time>2021-07-07T14:59:49.456Z</time>
      </trkpt>
      <trkpt lat="48.66411" lon="7.2799">
        <ele>546.99771937498</ele>
        <time>2021-07-07T14:59:52.389Z</time>
      </trkpt>
      <trkpt lat="48.66407" lon="7.27985">
        <ele>547.218996591</ele>
        <time>2021-07-07T14:59:55.324Z</time>
      </trkpt>
      <trkpt lat="48.66402" lon="7.27974">
        <ele>547.29491993272</ele>
        <time>2021-07-07T14:59:58.262Z</time>
      </trkpt>
      <trkpt lat="48.66396" lon="7.27965">
        <ele>547.26295432004</ele>
        <time>2021-07-07T15:00:01.202Z</time>
      </trkpt>
      <trkpt lat="48.66382" lon="7.27935">
        <ele>547.0488867459</ele>
        <time>2021-07-07T15:00:04.151Z</time>
      </trkpt>
      <trkpt lat="48.66377" lon="7.27927">
        <ele>546.71743222389</ele>
        <time>2021-07-07T15:00:07.102Z</time>
      </trkpt>
      <trkpt lat="48.66374" lon="7.27919">
        <ele>546.23003314008</ele>
        <time>2021-07-07T15:00:10.055Z</time>
      </trkpt>
      <trkpt lat="48.66369" lon="7.27907">
        <ele>545.5983518652</ele>
        <time>2021-07-07T15:00:13.011Z</time>
      </trkpt>
      <trkpt lat="48.66368" lon="7.27904">
        <ele>544.84022897104</ele>
        <time>2021-07-07T15:00:15.968Z</time>
      </trkpt>
      <trkpt lat="48.66362" lon="7.27894">
        <ele>543.93158520477</ele>
        <time>2021-07-07T15:00:18.928Z</time>
      </trkpt>
      <trkpt lat="48.66351" lon="7.27878">
        <ele>542.8769634368</ele>
        <time>2021-07-07T15:00:21.893Z</time>
      </trkpt>
      <trkpt lat="48.66332" lon="7.27866">
        <ele>541.72222703642</ele>
        <time>2021-07-07T15:00:24.865Z</time>
      </trkpt>
      <trkpt lat="48.66326" lon="7.27864">
        <ele>540.61133534984</ele>
        <time>2021-07-07T15:00:27.839Z</time>
      </trkpt>
      <trkpt lat="48.6632" lon="7.27864">
        <ele>539.51397821704</ele>
        <time>2021-07-07T15:00:30.815Z</time>
      </trkpt>
      <trkpt lat="48.66314" lon="7.27866">
        <ele>538.46688618748</ele>
        <time>2021-07-07T15:00:33.793Z</time>
      </trkpt>
      <trkpt lat="48.66308" lon="7.27869">
        <ele>537.46154718387</ele>
        <time>2021-07-07T15:00:36.773Z</time>
      </trkpt>
      <trkpt lat="48.66294" lon="7.2788">
        <ele>536.51727753643</ele>
        <time>2021-07-07T15:00:39.758Z</time>
      </trkpt>
      <trkpt lat="48.6627" lon="7.27901">
        <ele>535.6872186447</ele>
        <time>2021-07-07T15:00:42.753Z</time>
      </trkpt>
      <trkpt lat="48.66253" lon="7.27915">
        <ele>534.84546518388</ele>
        <time>2021-07-07T15:00:45.754Z</time>
      </trkpt>
      <trkpt lat="48.6624" lon="7.27922">
        <ele>534.07325114111</ele>
        <time>2021-07-07T15:00:48.760Z</time>
      </trkpt>
      <trkpt lat="48.66222" lon="7.27924">
        <ele>533.32627823496</ele>
        <time>2021-07-07T15:00:51.772Z</time>
      </trkpt>
      <trkpt lat="48.66205" lon="7.27928">
        <ele>532.76772026902</ele>
        <time>2021-07-07T15:00:54.789Z</time>
      </trkpt>
      <trkpt lat="48.66173" lon="7.27935">
        <ele>532.26299380694</ele>
        <time>2021-07-07T15:00:57.817Z</time>
      </trkpt>
      <trkpt lat="48.66156" lon="7.27941">
        <ele>532.00118163959</ele>
        <time>2021-07-07T15:01:00.851Z</time>
      </trkpt>
      <trkpt lat="48.66153" lon="7.27942">
        <ele>531.93968501042</ele>
        <time>2021-07-07T15:01:03.886Z</time>
      </trkpt>
      <trkpt lat="48.66135" lon="7.27948">
        <ele>532.06639894461</ele>
        <time>2021-07-07T15:01:06.927Z</time>
      </trkpt>
      <trkpt lat="48.66132" lon="7.2795">
        <ele>532.39613865209</ele>
        <time>2021-07-07T15:01:09.969Z</time>
      </trkpt>
      <trkpt lat="48.66127" lon="7.27958">
        <ele>532.96318808554</ele>
        <time>2021-07-07T15:01:13.014Z</time>
      </trkpt>
      <trkpt lat="48.66124" lon="7.27961">
        <ele>533.62861023259</ele>
        <time>2021-07-07T15:01:16.060Z</time>
      </trkpt>
      <trkpt lat="48.66119" lon="7.27965">
        <ele>534.4267764975</ele>
        <time>2021-07-07T15:01:19.108Z</time>
      </trkpt>
      <trkpt lat="48.66113" lon="7.27967">
        <ele>535.32652755457</ele>
        <time>2021-07-07T15:01:22.158Z</time>
      </trkpt>
      <trkpt lat="48.66108" lon="7.27968">
        <ele>536.30585841263</ele>
        <time>2021-07-07T15:01:25.209Z</time>
      </trkpt>
      <trkpt lat="48.66101" lon="7.27969">
        <ele>537.32897368677</ele>
        <time>2021-07-07T15:01:28.263Z</time>
      </trkpt>
      <trkpt lat="48.66094" lon="7.27972">
        <ele>538.36566196825</ele>
        <time>2021-07-07T15:01:31.319Z</time>
      </trkpt>
      <trkpt lat="48.66085" lon="7.27972">
        <ele>539.32617368271</ele>
        <time>2021-07-07T15:01:34.378Z</time>
      </trkpt>
      <trkpt lat="48.66083" lon="7.2797">
        <ele>540.12813327502</ele>
        <time>2021-07-07T15:01:37.438Z</time>
      </trkpt>
      <trkpt lat="48.66066" lon="7.27946">
        <ele>540.79204818732</ele>
        <time>2021-07-07T15:01:40.506Z</time>
      </trkpt>
      <trkpt lat="48.66051" lon="7.27928">
        <ele>541.39473222509</ele>
        <time>2021-07-07T15:01:43.580Z</time>
      </trkpt>
      <trkpt lat="48.66042" lon="7.2792">
        <ele>541.91999852516</ele>
        <time>2021-07-07T15:01:46.658Z</time>
      </trkpt>
      <trkpt lat="48.66035" lon="7.27911">
        <ele>542.31020818616</ele>
        <time>2021-07-07T15:01:49.739Z</time>
      </trkpt>
      <trkpt lat="48.66022" lon="7.27899">
        <ele>542.62301498564</ele>
        <time>2021-07-07T15:01:52.825Z</time>
      </trkpt>
      <trkpt lat="48.66005" lon="7.27881">
        <ele>542.81409492808</ele>
        <time>2021-07-07T15:01:55.918Z</time>
      </trkpt>
      <trkpt lat="48.6599" lon="7.27867">
        <ele>542.8411846373</ele>
        <time>2021-07-07T15:01:59.017Z</time>
      </trkpt>
      <trkpt lat="48.65985" lon="7.27861">
        <ele>542.84589293627</ele>
        <time>2021-07-07T15:02:02.118Z</time>
      </trkpt>
      <trkpt lat="48.65976" lon="7.27849">
        <ele>542.75406032964</ele>
        <time>2021-07-07T15:02:05.223Z</time>
      </trkpt>
      <trkpt lat="48.65957" lon="7.27835">
        <ele>542.66050927096</ele>
        <time>2021-07-07T15:02:08.335Z</time>
      </trkpt>
      <trkpt lat="48.65957" lon="7.27835">
        <ele>542.5149374342</ele>
        <time>2021-07-07T15:02:11.447Z</time>
      </trkpt>
      <trkpt lat="48.65957" lon="7.27835">
        <ele>542.26496066756</ele>
        <time>2021-07-07T15:02:14.559Z</time>
      </trkpt>
      <trkpt lat="48.6595" lon="7.27832">
        <ele>541.87477768752</ele>
        <time>2021-07-07T15:02:17.673Z</time>
      </trkpt>
      <trkpt lat="48.65938" lon="7.27825">
        <ele>541.24981018398</ele>
        <time>2021-07-07T15:02:20.792Z</time>
      </trkpt>
      <trkpt lat="48.65933" lon="7.27822">
        <ele>540.40757078752</ele>
        <time>2021-07-07T15:02:23.912Z</time>
      </trkpt>
      <trkpt lat="48.65929" lon="7.27817">
        <ele>539.25590432332</ele>
        <time>2021-07-07T15:02:27.034Z</time>
      </trkpt>
      <trkpt lat="48.65926" lon="7.27806">
        <ele>537.73025816691</ele>
        <time>2021-07-07T15:02:30.159Z</time>
      </trkpt>
      <trkpt lat="48.65925" lon="7.27802">
        <ele>535.80231136147</ele>
        <time>2021-07-07T15:02:33.285Z</time>
      </trkpt>
      <trkpt lat="48.65915" lon="7.27775">
        <ele>533.36033758469</ele>
        <time>2021-07-07T15:02:36.418Z</time>
      </trkpt>
      <trkpt lat="48.65907" lon="7.27754">
        <ele>530.38137721288</ele>
        <time>2021-07-07T15:02:39.556Z</time>
      </trkpt>
      <trkpt lat="48.65881" lon="7.27712">
        <ele>526.69669808693</ele>
        <time>2021-07-07T15:02:42.707Z</time>
      </trkpt>
      <trkpt lat="48.65868" lon="7.27677">
        <ele>522.74525567095</ele>
        <time>2021-07-07T15:02:45.866Z</time>
      </trkpt>
      <trkpt lat="48.65872" lon="7.2765">
        <ele>518.55843512353</ele>
        <time>2021-07-07T15:02:49.032Z</time>
      </trkpt>
      <trkpt lat="48.65891" lon="7.27601">
        <ele>513.90184359859</ele>
        <time>2021-07-07T15:02:52.210Z</time>
      </trkpt>
      <trkpt lat="48.65935" lon="7.27524">
        <ele>508.69707444461</ele>
        <time>2021-07-07T15:02:55.411Z</time>
      </trkpt>
      <trkpt lat="48.65938" lon="7.27519">
        <ele>503.81422317631</ele>
        <time>2021-07-07T15:02:58.613Z</time>
      </trkpt>
      <trkpt lat="48.65939" lon="7.27517">
        <ele>498.89837335259</ele>
        <time>2021-07-07T15:03:01.816Z</time>
      </trkpt>
      <trkpt lat="48.65924" lon="7.27494">
        <ele>493.73473038136</ele>
        <time>2021-07-07T15:03:05.026Z</time>
      </trkpt>
      <trkpt lat="48.65886" lon="7.27489">
        <ele>488.60489712861</ele>
        <time>2021-07-07T15:03:08.248Z</time>
      </trkpt>
      <trkpt lat="48.65842" lon="7.27474">
        <ele>483.75769726032</ele>
        <time>2021-07-07T15:03:11.486Z</time>
      </trkpt>
      <trkpt lat="48.6583" lon="7.27473">
        <ele>479.60693811581</ele>
        <time>2021-07-07T15:03:14.728Z</time>
      </trkpt>
      <trkpt lat="48.65818" lon="7.27467">
        <ele>475.82113156053</ele>
        <time>2021-07-07T15:03:17.974Z</time>
      </trkpt>
      <trkpt lat="48.65793" lon="7.27471">
        <ele>472.44512226561</ele>
        <time>2021-07-07T15:03:21.228Z</time>
      </trkpt>
      <trkpt lat="48.65772" lon="7.2748">
        <ele>469.66176253804</ele>
        <time>2021-07-07T15:03:24.489Z</time>
      </trkpt>
      <trkpt lat="48.65762" lon="7.27494">
        <ele>467.71784867951</ele>
        <time>2021-07-07T15:03:27.755Z</time>
      </trkpt>
      <trkpt lat="48.65744" lon="7.2754">
        <ele>466.73296930211</ele>
        <time>2021-07-07T15:03:31.033Z</time>
      </trkpt>
      <trkpt lat="48.65735" lon="7.27548">
        <ele>466.17211353166</ele>
        <time>2021-07-07T15:03:34.314Z</time>
      </trkpt>
      <trkpt lat="48.65734" lon="7.27551">
        <ele>466.36667066376</ele>
        <time>2021-07-07T15:03:37.596Z</time>
      </trkpt>
      <trkpt lat="48.65726" lon="7.27561">
        <ele>467.27518191777</ele>
        <time>2021-07-07T15:03:40.881Z</time>
      </trkpt>
      <trkpt lat="48.65722" lon="7.27566">
        <ele>468.90908793862</ele>
        <time>2021-07-07T15:03:44.168Z</time>
      </trkpt>
      <trkpt lat="48.65719" lon="7.27562">
        <ele>471.13811948968</ele>
        <time>2021-07-07T15:03:47.457Z</time>
      </trkpt>
      <trkpt lat="48.65718" lon="7.2756">
        <ele>474.04521174434</ele>
        <time>2021-07-07T15:03:50.746Z</time>
      </trkpt>
      <trkpt lat="48.65718" lon="7.27556">
        <ele>477.56188925127</ele>
        <time>2021-07-07T15:03:54.036Z</time>
      </trkpt>
      <trkpt lat="48.65719" lon="7.27537">
        <ele>481.61599748202</ele>
        <time>2021-07-07T15:03:57.330Z</time>
      </trkpt>
      <trkpt lat="48.65689" lon="7.27468">
        <ele>486.85100837061</ele>
        <time>2021-07-07T15:04:00.642Z</time>
      </trkpt>
      <trkpt lat="48.65681" lon="7.27418">
        <ele>492.45112130554</ele>
        <time>2021-07-07T15:04:03.966Z</time>
      </trkpt>
      <trkpt lat="48.65665" lon="7.2739">
        <ele>498.04920343018</ele>
        <time>2021-07-07T15:04:07.298Z</time>
      </trkpt>
      <trkpt lat="48.65657" lon="7.27361">
        <ele>503.26985879311</ele>
        <time>2021-07-07T15:04:10.637Z</time>
      </trkpt>
      <trkpt lat="48.65613" lon="7.27323">
        <ele>508.88695745922</ele>
        <time>2021-07-07T15:04:13.993Z</time>
      </trkpt>
      <trkpt lat="48.65579" lon="7.27285">
        <ele>513.82287873895</ele>
        <time>2021-07-07T15:04:17.363Z</time>
      </trkpt>
      <trkpt lat="48.65557" lon="7.27262">
        <ele>518.15603922261</ele>
        <time>2021-07-07T15:04:20.742Z</time>
      </trkpt>
      <trkpt lat="48.65544" lon="7.27244">
        <ele>522.03449855226</ele>
        <time>2021-07-07T15:04:24.127Z</time>
      </trkpt>
      <trkpt lat="48.65533" lon="7.27243">
        <ele>525.53556098243</ele>
        <time>2021-07-07T15:04:27.515Z</time>
      </trkpt>
      <trkpt lat="48.65529" lon="7.27246">
        <ele>528.55826379197</ele>
        <time>2021-07-07T15:04:30.905Z</time>
      </trkpt>
      <trkpt lat="48.65523" lon="7.27247">
        <ele>531.18928792152</ele>
        <time>2021-07-07T15:04:34.297Z</time>
      </trkpt>
      <trkpt lat="48.65516" lon="7.27247">
        <ele>533.47224407092</ele>
        <time>2021-07-07T15:04:37.691Z</time>
      </trkpt>
      <trkpt lat="48.65512" lon="7.27246">
        <ele>535.42175249871</ele>
        <time>2021-07-07T15:04:41.087Z</time>
      </trkpt>
      <trkpt lat="48.65509" lon="7.27245">
        <ele>537.13220363777</ele>
        <time>2021-07-07T15:04:44.484Z</time>
      </trkpt>
      <trkpt lat="48.65501" lon="7.2724">
        <ele>538.71493939263</ele>
        <time>2021-07-07T15:04:47.884Z</time>
      </trkpt>
      <trkpt lat="48.65488" lon="7.27226">
        <ele>540.1996313502</ele>
        <time>2021-07-07T15:04:51.289Z</time>
      </trkpt>
      <trkpt lat="48.65475" lon="7.27219">
        <ele>541.66688323236</ele>
        <time>2021-07-07T15:04:54.698Z</time>
      </trkpt>
      <trkpt lat="48.65464" lon="7.2721">
        <ele>543.15594812624</ele>
        <time>2021-07-07T15:04:58.112Z</time>
      </trkpt>
      <trkpt lat="48.65457" lon="7.27202">
        <ele>544.58697480061</ele>
        <time>2021-07-07T15:05:01.529Z</time>
      </trkpt>
      <trkpt lat="48.65447" lon="7.27187">
        <ele>546.06147532125</ele>
        <time>2021-07-07T15:05:04.950Z</time>
      </trkpt>
      <trkpt lat="48.65445" lon="7.27176">
        <ele>547.42106532029</ele>
        <time>2021-07-07T15:05:08.374Z</time>
      </trkpt>
      <trkpt lat="48.65444" lon="7.27174">
        <ele>548.73878786701</ele>
        <time>2021-07-07T15:05:11.798Z</time>
      </trkpt>
      <trkpt lat="48.65436" lon="7.27167">
        <ele>550.13489393266</ele>
        <time>2021-07-07T15:05:15.225Z</time>
      </trkpt>
      <trkpt lat="48.65401" lon="7.27142">
        <ele>551.73376968757</ele>
        <time>2021-07-07T15:05:18.665Z</time>
      </trkpt>
      <trkpt lat="48.65397" lon="7.27138">
        <ele>552.91712265361</ele>
        <time>2021-07-07T15:05:22.107Z</time>
      </trkpt>
      <trkpt lat="48.65396" lon="7.27134">
        <ele>553.9731463895</ele>
        <time>2021-07-07T15:05:25.550Z</time>
      </trkpt>
      <trkpt lat="48.65396" lon="7.27132">
        <ele>554.92212563223</ele>
        <time>2021-07-07T15:05:28.993Z</time>
      </trkpt>
      <trkpt lat="48.65396" lon="7.27117">
        <ele>555.77719069919</ele>
        <time>2021-07-07T15:05:32.440Z</time>
      </trkpt>
      <trkpt lat="48.65397" lon="7.27105">
        <ele>556.55112040985</ele>
        <time>2021-07-07T15:05:35.889Z</time>
      </trkpt>
      <trkpt lat="48.65399" lon="7.27086">
        <ele>557.31042318975</ele>
        <time>2021-07-07T15:05:39.343Z</time>
      </trkpt>
      <trkpt lat="48.65404" lon="7.27073">
        <ele>557.95096375557</ele>
        <time>2021-07-07T15:05:42.800Z</time>
      </trkpt>
      <trkpt lat="48.65409" lon="7.27062">
        <ele>558.55064137042</ele>
        <time>2021-07-07T15:05:46.260Z</time>
      </trkpt>
      <trkpt lat="48.65409" lon="7.27057">
        <ele>559.13451103335</ele>
        <time>2021-07-07T15:05:49.721Z</time>
      </trkpt>
      <trkpt lat="48.65405" lon="7.27042">
        <ele>559.76498307188</ele>
        <time>2021-07-07T15:05:53.186Z</time>
      </trkpt>
      <trkpt lat="48.654" lon="7.27028">
        <ele>560.37998551007</ele>
        <time>2021-07-07T15:05:56.654Z</time>
      </trkpt>
      <trkpt lat="48.65399" lon="7.27022">
        <ele>560.91368673627</ele>
        <time>2021-07-07T15:06:00.123Z</time>
      </trkpt>
      <trkpt lat="48.654" lon="7.26974">
        <ele>561.48160625702</ele>
        <time>2021-07-07T15:06:03.603Z</time>
      </trkpt>
      <trkpt lat="48.65416" lon="7.26963">
        <ele>561.88339469806</ele>
        <time>2021-07-07T15:06:07.089Z</time>
      </trkpt>
      <trkpt lat="48.6543" lon="7.26949">
        <ele>562.25705160739</ele>
        <time>2021-07-07T15:06:10.581Z</time>
      </trkpt>
      <trkpt lat="48.65442" lon="7.26935">
        <ele>562.68167002146</ele>
        <time>2021-07-07T15:06:14.078Z</time>
      </trkpt>
      <trkpt lat="48.65462" lon="7.26914">
        <ele>563.03773079571</ele>
        <time>2021-07-07T15:06:17.583Z</time>
      </trkpt>
      <trkpt lat="48.65484" lon="7.26896">
        <ele>563.39826374406</ele>
        <time>2021-07-07T15:06:21.096Z</time>
      </trkpt>
      <trkpt lat="48.65477" lon="7.26847">
        <ele>563.8568450147</ele>
        <time>2021-07-07T15:06:24.620Z</time>
      </trkpt>
      <trkpt lat="48.65463" lon="7.2678">
        <ele>564.25059269304</ele>
        <time>2021-07-07T15:06:28.160Z</time>
      </trkpt>
      <trkpt lat="48.65444" lon="7.26716">
        <ele>564.77212387852</ele>
        <time>2021-07-07T15:06:31.715Z</time>
      </trkpt>
      <trkpt lat="48.6544" lon="7.26712">
        <ele>564.89348854232</ele>
        <time>2021-07-07T15:06:35.272Z</time>
      </trkpt>
      <trkpt lat="48.65412" lon="7.26687">
        <ele>564.89497926048</ele>
        <time>2021-07-07T15:06:38.840Z</time>
      </trkpt>
      <trkpt lat="48.65367" lon="7.26672">
        <ele>564.54044212819</ele>
        <time>2021-07-07T15:06:42.423Z</time>
      </trkpt>
      <trkpt lat="48.65275" lon="7.26638">
        <ele>563.46827641764</ele>
        <time>2021-07-07T15:06:46.038Z</time>
      </trkpt>
      <trkpt lat="48.65258" lon="7.26645">
        <ele>561.89686759713</ele>
        <time>2021-07-07T15:06:49.658Z</time>
      </trkpt>
      <trkpt lat="48.65218" lon="7.266">
        <ele>559.63647926207</ele>
        <time>2021-07-07T15:06:53.295Z</time>
      </trkpt>
      <trkpt lat="48.65151" lon="7.26565">
        <ele>557.00868839715</ele>
        <time>2021-07-07T15:06:56.956Z</time>
      </trkpt>
      <trkpt lat="48.65122" lon="7.26559">
        <ele>554.04166638359</ele>
        <time>2021-07-07T15:07:00.627Z</time>
      </trkpt>
      <trkpt lat="48.65108" lon="7.26555">
        <ele>550.79664898317</ele>
        <time>2021-07-07T15:07:04.302Z</time>
      </trkpt>
      <trkpt lat="48.65038" lon="7.26608">
        <ele>546.94735002051</ele>
        <time>2021-07-07T15:07:08.003Z</time>
      </trkpt>
      <trkpt lat="48.64976" lon="7.26602">
        <ele>543.04041959001</ele>
        <time>2021-07-07T15:07:11.725Z</time>
      </trkpt>
      <trkpt lat="48.64974" lon="7.26602">
        <ele>539.43892580644</ele>
        <time>2021-07-07T15:07:15.448Z</time>
      </trkpt>
      <trkpt lat="48.64939" lon="7.26615">
        <ele>535.64741952948</ele>
        <time>2021-07-07T15:07:19.183Z</time>
      </trkpt>
      <trkpt lat="48.64884" lon="7.26638">
        <ele>531.7577734292</ele>
        <time>2021-07-07T15:07:22.937Z</time>
      </trkpt>
      <trkpt lat="48.64877" lon="7.26639">
        <ele>528.41186917755</ele>
        <time>2021-07-07T15:07:26.693Z</time>
      </trkpt>
      <trkpt lat="48.64859" lon="7.26592">
        <ele>525.33373807643</ele>
        <time>2021-07-07T15:07:30.461Z</time>
      </trkpt>
      <trkpt lat="48.6486" lon="7.26537">
        <ele>522.44383212807</ele>
        <time>2021-07-07T15:07:34.241Z</time>
      </trkpt>
      <trkpt lat="48.64872" lon="7.26459">
        <ele>519.28280041305</ele>
        <time>2021-07-07T15:07:38.039Z</time>
      </trkpt>
      <trkpt lat="48.64867" lon="7.26405">
        <ele>516.14573527148</ele>
        <time>2021-07-07T15:07:41.849Z</time>
      </trkpt>
      <trkpt lat="48.64838" lon="7.2638">
        <ele>513.16711240586</ele>
        <time>2021-07-07T15:07:45.670Z</time>
      </trkpt>
      <trkpt lat="48.64749" lon="7.26339">
        <ele>509.96178926229</ele>
        <time>2021-07-07T15:07:49.522Z</time>
      </trkpt>
      <trkpt lat="48.64747" lon="7.26338">
        <ele>507.3611709262</ele>
        <time>2021-07-07T15:07:53.375Z</time>
      </trkpt>
      <trkpt lat="48.64727" lon="7.26333">
        <ele>504.99404871916</ele>
        <time>2021-07-07T15:07:57.235Z</time>
      </trkpt>
      <trkpt lat="48.64702" lon="7.26312">
        <ele>502.53167008516</ele>
        <time>2021-07-07T15:08:01.104Z</time>
      </trkpt>
      <trkpt lat="48.6466" lon="7.26295">
        <ele>500.45886812833</ele>
        <time>2021-07-07T15:08:04.988Z</time>
      </trkpt>
      <trkpt lat="48.64657" lon="7.2629">
        <ele>498.93815784886</ele>
        <time>2021-07-07T15:08:08.873Z</time>
      </trkpt>
      <trkpt lat="48.64654" lon="7.26284">
        <ele>497.81166896439</ele>
        <time>2021-07-07T15:08:12.760Z</time>
      </trkpt>
      <trkpt lat="48.64654" lon="7.26282">
        <ele>497.13257547929</ele>
        <time>2021-07-07T15:08:16.647Z</time>
      </trkpt>
      <trkpt lat="48.64655" lon="7.2628">
        <ele>496.90213793695</ele>
        <time>2021-07-07T15:08:20.535Z</time>
      </trkpt>
      <trkpt lat="48.64669" lon="7.26277">
        <ele>497.10241502985</ele>
        <time>2021-07-07T15:08:24.428Z</time>
      </trkpt>
      <trkpt lat="48.64674" lon="7.26273">
        <ele>497.77991455928</ele>
        <time>2021-07-07T15:08:28.323Z</time>
      </trkpt>
      <trkpt lat="48.64678" lon="7.26269">
        <ele>498.9243474788</ele>
        <time>2021-07-07T15:08:32.219Z</time>
      </trkpt>
      <trkpt lat="48.6472" lon="7.26238">
        <ele>500.54189081735</ele>
        <time>2021-07-07T15:08:36.131Z</time>
      </trkpt>
      <trkpt lat="48.64807" lon="7.26192">
        <ele>502.97298698997</ele>
        <time>2021-07-07T15:08:40.074Z</time>
      </trkpt>
      <trkpt lat="48.64871" lon="7.26157">
        <ele>505.38637919696</ele>
        <time>2021-07-07T15:08:44.039Z</time>
      </trkpt>
      <trkpt lat="48.64886" lon="7.26149">
        <ele>507.93788124099</ele>
        <time>2021-07-07T15:08:48.010Z</time>
      </trkpt>
      <trkpt lat="48.64899" lon="7.26141">
        <ele>510.57589500431</ele>
        <time>2021-07-07T15:08:51.985Z</time>
      </trkpt>
      <trkpt lat="48.64912" lon="7.26128">
        <ele>513.21032328982</ele>
        <time>2021-07-07T15:08:55.965Z</time>
      </trkpt>
      <trkpt lat="48.64923" lon="7.26112">
        <ele>516.0507011447</ele>
        <time>2021-07-07T15:08:59.951Z</time>
      </trkpt>
      <trkpt lat="48.64934" lon="7.26093">
        <ele>518.97196351192</ele>
        <time>2021-07-07T15:09:03.942Z</time>
      </trkpt>
      <trkpt lat="48.64942" lon="7.26074">
        <ele>521.80531124344</ele>
        <time>2021-07-07T15:09:07.938Z</time>
      </trkpt>
      <trkpt lat="48.6496" lon="7.26032">
        <ele>524.61541163044</ele>
        <time>2021-07-07T15:09:11.945Z</time>
      </trkpt>
      <trkpt lat="48.6498" lon="7.25994">
        <ele>526.96634136488</ele>
        <time>2021-07-07T15:09:15.963Z</time>
      </trkpt>
      <trkpt lat="48.64991" lon="7.25977">
        <ele>529.04265370436</ele>
        <time>2021-07-07T15:09:19.986Z</time>
      </trkpt>
      <trkpt lat="48.65003" lon="7.25963">
        <ele>530.81823379606</ele>
        <time>2021-07-07T15:09:24.014Z</time>
      </trkpt>
      <trkpt lat="48.65015" lon="7.25951">
        <ele>532.27315444189</ele>
        <time>2021-07-07T15:09:28.047Z</time>
      </trkpt>
      <trkpt lat="48.65032" lon="7.25933">
        <ele>533.52401585941</ele>
        <time>2021-07-07T15:09:32.087Z</time>
      </trkpt>
      <trkpt lat="48.65046" lon="7.2592">
        <ele>534.40550369831</ele>
        <time>2021-07-07T15:09:36.132Z</time>
      </trkpt>
      <trkpt lat="48.65051" lon="7.25912">
        <ele>535.26529573892</ele>
        <time>2021-07-07T15:09:40.180Z</time>
      </trkpt>
      <trkpt lat="48.65056" lon="7.25903">
        <ele>535.96472224112</ele>
        <time>2021-07-07T15:09:44.230Z</time>
      </trkpt>
      <trkpt lat="48.65065" lon="7.25883">
        <ele>536.65517793355</ele>
        <time>2021-07-07T15:09:48.286Z</time>
      </trkpt>
      <trkpt lat="48.65071" lon="7.25859">
        <ele>537.31602538368</ele>
        <time>2021-07-07T15:09:52.347Z</time>
      </trkpt>
      <trkpt lat="48.65086" lon="7.25816">
        <ele>537.87469289014</ele>
        <time>2021-07-07T15:09:56.419Z</time>
      </trkpt>
      <trkpt lat="48.65092" lon="7.25798">
        <ele>538.43617357189</ele>
        <time>2021-07-07T15:10:00.496Z</time>
      </trkpt>
      <trkpt lat="48.65098" lon="7.25771">
        <ele>539.13569449646</ele>
        <time>2021-07-07T15:10:04.579Z</time>
      </trkpt>
      <trkpt lat="48.65099" lon="7.25754">
        <ele>539.94670391277</ele>
        <time>2021-07-07T15:10:08.666Z</time>
      </trkpt>
      <trkpt lat="48.65097" lon="7.25747">
        <ele>540.80862576895</ele>
        <time>2021-07-07T15:10:12.754Z</time>
      </trkpt>
      <trkpt lat="48.65092" lon="7.25731">
        <ele>541.79665635506</ele>
        <time>2021-07-07T15:10:16.846Z</time>
      </trkpt>
      <trkpt lat="48.65089" lon="7.2572">
        <ele>542.75926167902</ele>
        <time>2021-07-07T15:10:20.941Z</time>
      </trkpt>
      <trkpt lat="48.65089" lon="7.25719">
        <ele>543.63902008719</ele>
        <time>2021-07-07T15:10:25.036Z</time>
      </trkpt>
      <trkpt lat="48.65087" lon="7.25708">
        <ele>544.54556101221</ele>
        <time>2021-07-07T15:10:29.134Z</time>
      </trkpt>
      <trkpt lat="48.65077" lon="7.25678">
        <ele>545.46965163501</ele>
        <time>2021-07-07T15:10:33.239Z</time>
      </trkpt>
      <trkpt lat="48.65074" lon="7.25663">
        <ele>546.25179090807</ele>
        <time>2021-07-07T15:10:37.348Z</time>
      </trkpt>
      <trkpt lat="48.6507" lon="7.25646">
        <ele>546.90522980974</ele>
        <time>2021-07-07T15:10:41.461Z</time>
      </trkpt>
      <trkpt lat="48.65064" lon="7.25615">
        <ele>547.47301616821</ele>
        <time>2021-07-07T15:10:45.581Z</time>
      </trkpt>
      <trkpt lat="48.65057" lon="7.25603">
        <ele>547.94206662927</ele>
        <time>2021-07-07T15:10:49.704Z</time>
      </trkpt>
      <trkpt lat="48.65043" lon="7.25584">
        <ele>548.26596756529</ele>
        <time>2021-07-07T15:10:53.834Z</time>
      </trkpt>
      <trkpt lat="48.65038" lon="7.25581">
        <ele>548.5171597781</ele>
        <time>2021-07-07T15:10:57.965Z</time>
      </trkpt>
      <trkpt lat="48.65035" lon="7.25576">
        <ele>548.66120308398</ele>
        <time>2021-07-07T15:11:02.098Z</time>
      </trkpt>
      <trkpt lat="48.65025" lon="7.25558">
        <ele>548.69548811349</ele>
        <time>2021-07-07T15:11:06.236Z</time>
      </trkpt>
      <trkpt lat="48.65009" lon="7.25547">
        <ele>548.75906638907</ele>
        <time>2021-07-07T15:11:10.380Z</time>
      </trkpt>
      <trkpt lat="48.64995" lon="7.25533">
        <ele>548.73155026586</ele>
        <time>2021-07-07T15:11:14.529Z</time>
      </trkpt>
      <trkpt lat="48.64995" lon="7.25533">
        <ele>548.62807267882</ele>
        <time>2021-07-07T15:11:18.678Z</time>
      </trkpt>
      <trkpt lat="48.64995" lon="7.25533">
        <ele>548.48616455798</ele>
        <time>2021-07-07T15:11:22.827Z</time>
      </trkpt>
      <trkpt lat="48.64988" lon="7.25526">
        <ele>548.3326969797</ele>
        <time>2021-07-07T15:11:26.979Z</time>
      </trkpt>
      <trkpt lat="48.64987" lon="7.25525">
        <ele>548.1576200405</ele>
        <time>2021-07-07T15:11:31.132Z</time>
      </trkpt>
      <trkpt lat="48.64984" lon="7.25521">
        <ele>547.98687537277</ele>
        <time>2021-07-07T15:11:35.286Z</time>
      </trkpt>
      <trkpt lat="48.64968" lon="7.25494">
        <ele>547.87899400834</ele>
        <time>2021-07-07T15:11:39.448Z</time>
      </trkpt>
      <trkpt lat="48.6496" lon="7.25477">
        <ele>547.77413850974</ele>
        <time>2021-07-07T15:11:43.615Z</time>
      </trkpt>
      <trkpt lat="48.64942" lon="7.2543">
        <ele>547.70284371697</ele>
        <time>2021-07-07T15:11:47.794Z</time>
      </trkpt>
      <trkpt lat="48.64925" lon="7.25374">
        <ele>547.6814789053</ele>
        <time>2021-07-07T15:11:51.986Z</time>
      </trkpt>
      <trkpt lat="48.6492" lon="7.25349">
        <ele>547.82669498091</ele>
        <time>2021-07-07T15:11:56.184Z</time>
      </trkpt>
      <trkpt lat="48.64918" lon="7.25362">
        <ele>548.16173066765</ele>
        <time>2021-07-07T15:12:00.385Z</time>
      </trkpt>
      <trkpt lat="48.64917" lon="7.25375">
        <ele>548.65145022392</ele>
        <time>2021-07-07T15:12:04.589Z</time>
      </trkpt>
      <trkpt lat="48.64904" lon="7.2536">
        <ele>549.30894110635</ele>
        <time>2021-07-07T15:12:08.798Z</time>
      </trkpt>
      <trkpt lat="48.64898" lon="7.25354">
        <ele>550.09020707226</ele>
        <time>2021-07-07T15:12:13.010Z</time>
      </trkpt>
      <trkpt lat="48.6489" lon="7.25346">
        <ele>551.02593445442</ele>
        <time>2021-07-07T15:12:17.225Z</time>
      </trkpt>
      <trkpt lat="48.64863" lon="7.25317">
        <ele>552.21482558154</ele>
        <time>2021-07-07T15:12:21.451Z</time>
      </trkpt>
      <trkpt lat="48.64852" lon="7.25308">
        <ele>553.45440105349</ele>
        <time>2021-07-07T15:12:25.681Z</time>
      </trkpt>
      <trkpt lat="48.64831" lon="7.25289">
        <ele>554.79986305368</ele>
        <time>2021-07-07T15:12:29.919Z</time>
      </trkpt>
      <trkpt lat="48.64822" lon="7.25282">
        <ele>555.96231743474</ele>
        <time>2021-07-07T15:12:34.161Z</time>
      </trkpt>
      <trkpt lat="48.64816" lon="7.25272">
        <ele>557.09786583682</ele>
        <time>2021-07-07T15:12:38.406Z</time>
      </trkpt>
      <trkpt lat="48.64808" lon="7.25252">
        <ele>558.16044479239</ele>
        <time>2021-07-07T15:12:42.656Z</time>
      </trkpt>
      <trkpt lat="48.64798" lon="7.25224">
        <ele>559.27178655239</ele>
        <time>2021-07-07T15:12:46.913Z</time>
      </trkpt>
      <trkpt lat="48.64797" lon="7.25218">
        <ele>560.45843710816</ele>
        <time>2021-07-07T15:12:51.171Z</time>
      </trkpt>
      <trkpt lat="48.64789" lon="7.2519">
        <ele>561.72988206181</ele>
        <time>2021-07-07T15:12:55.436Z</time>
      </trkpt>
      <trkpt lat="48.64778" lon="7.25151">
        <ele>563.22076529609</ele>
        <time>2021-07-07T15:12:59.710Z</time>
      </trkpt>
      <trkpt lat="48.64766" lon="7.25089">
        <ele>564.83382609783</ele>
        <time>2021-07-07T15:13:03.999Z</time>
      </trkpt>
      <trkpt lat="48.64752" lon="7.25027">
        <ele>566.82638472973</ele>
        <time>2021-07-07T15:13:08.302Z</time>
      </trkpt>
      <trkpt lat="48.64742" lon="7.2498">
        <ele>568.87027754747</ele>
        <time>2021-07-07T15:13:12.616Z</time>
      </trkpt>
      <trkpt lat="48.64737" lon="7.24959">
        <ele>570.7943378801</ele>
        <time>2021-07-07T15:13:16.935Z</time>
      </trkpt>
      <trkpt lat="48.64728" lon="7.24936">
        <ele>572.76458282599</ele>
        <time>2021-07-07T15:13:21.260Z</time>
      </trkpt>
      <trkpt lat="48.64721" lon="7.24921">
        <ele>574.74861227277</ele>
        <time>2021-07-07T15:13:25.589Z</time>
      </trkpt>
      <trkpt lat="48.64712" lon="7.24906">
        <ele>576.7910171603</ele>
        <time>2021-07-07T15:13:29.922Z</time>
      </trkpt>
      <trkpt lat="48.6472" lon="7.2493">
        <ele>578.86888985457</ele>
        <time>2021-07-07T15:13:34.261Z</time>
      </trkpt>
      <trkpt lat="48.64723" lon="7.2495">
        <ele>580.9444081409</ele>
        <time>2021-07-07T15:13:38.605Z</time>
      </trkpt>
      <trkpt lat="48.64719" lon="7.24952">
        <ele>583.05362482648</ele>
        <time>2021-07-07T15:13:42.950Z</time>
      </trkpt>
      <trkpt lat="48.64692" lon="7.24956">
        <ele>585.38445686208</ele>
        <time>2021-07-07T15:13:47.304Z</time>
      </trkpt>
      <trkpt lat="48.64647" lon="7.24986">
        <ele>588.04740364233</ele>
        <time>2021-07-07T15:13:51.675Z</time>
      </trkpt>
      <trkpt lat="48.64618" lon="7.2493">
        <ele>589.60070534701</ele>
        <time>2021-07-07T15:13:56.061Z</time>
      </trkpt>
      <trkpt lat="48.64566" lon="7.24913">
        <ele>591.18919799553</ele>
        <time>2021-07-07T15:14:00.465Z</time>
      </trkpt>
      <trkpt lat="48.64501" lon="7.2493">
        <ele>592.51752781292</ele>
        <time>2021-07-07T15:14:04.891Z</time>
      </trkpt>
      <trkpt lat="48.64447" lon="7.24967">
        <ele>593.74529836344</ele>
        <time>2021-07-07T15:14:09.337Z</time>
      </trkpt>
      <trkpt lat="48.64424" lon="7.25012">
        <ele>594.44350943385</ele>
        <time>2021-07-07T15:14:13.796Z</time>
      </trkpt>
      <trkpt lat="48.64367" lon="7.25005">
        <ele>594.46207789026</ele>
        <time>2021-07-07T15:14:18.274Z</time>
      </trkpt>
      <trkpt lat="48.64326" lon="7.25025">
        <ele>594.56135315098</ele>
        <time>2021-07-07T15:14:22.766Z</time>
      </trkpt>
      <trkpt lat="48.64325" lon="7.25028">
        <ele>594.96984002306</ele>
        <time>2021-07-07T15:14:27.259Z</time>
      </trkpt>
      <trkpt lat="48.6432" lon="7.25034">
        <ele>595.48631973494</ele>
        <time>2021-07-07T15:14:31.754Z</time>
      </trkpt>
      <trkpt lat="48.64298" lon="7.25043">
        <ele>596.30862271882</ele>
        <time>2021-07-07T15:14:36.256Z</time>
      </trkpt>
      <trkpt lat="48.64284" lon="7.25028">
        <ele>597.38935746792</ele>
        <time>2021-07-07T15:14:40.764Z</time>
      </trkpt>
      <trkpt lat="48.64281" lon="7.25015">
        <ele>598.57706466881</ele>
        <time>2021-07-07T15:14:45.275Z</time>
      </trkpt>
      <trkpt lat="48.64281" lon="7.25014">
        <ele>599.93653300598</ele>
        <time>2021-07-07T15:14:49.786Z</time>
      </trkpt>
      <trkpt lat="48.64274" lon="7.24987">
        <ele>601.68279434872</ele>
        <time>2021-07-07T15:14:54.304Z</time>
      </trkpt>
      <trkpt lat="48.64265" lon="7.24962">
        <ele>603.65259094038</ele>
        <time>2021-07-07T15:14:58.828Z</time>
      </trkpt>
      <trkpt lat="48.64257" lon="7.2494">
        <ele>605.59518862807</ele>
        <time>2021-07-07T15:15:03.358Z</time>
      </trkpt>
      <trkpt lat="48.64246" lon="7.24917">
        <ele>607.45069116881</ele>
        <time>2021-07-07T15:15:07.894Z</time>
      </trkpt>
      <trkpt lat="48.64233" lon="7.24892">
        <ele>609.13842556229</ele>
        <time>2021-07-07T15:15:12.437Z</time>
      </trkpt>
      <trkpt lat="48.64207" lon="7.24855">
        <ele>610.51408563902</ele>
        <time>2021-07-07T15:15:16.992Z</time>
      </trkpt>
      <trkpt lat="48.64188" lon="7.24826">
        <ele>611.7174715399</ele>
        <time>2021-07-07T15:15:21.556Z</time>
      </trkpt>
      <trkpt lat="48.64182" lon="7.24813">
        <ele>612.68171369484</ele>
        <time>2021-07-07T15:15:26.123Z</time>
      </trkpt>
      <trkpt lat="48.64171" lon="7.24796">
        <ele>613.45930800361</ele>
        <time>2021-07-07T15:15:30.696Z</time>
      </trkpt>
      <trkpt lat="48.6416" lon="7.24781">
        <ele>614.01105193865</ele>
        <time>2021-07-07T15:15:35.274Z</time>
      </trkpt>
      <trkpt lat="48.6415" lon="7.2477">
        <ele>614.45171833214</ele>
        <time>2021-07-07T15:15:39.856Z</time>
      </trkpt>
      <trkpt lat="48.64144" lon="7.24764">
        <ele>614.83416179128</ele>
        <time>2021-07-07T15:15:44.440Z</time>
      </trkpt>
      <trkpt lat="48.64123" lon="7.24755">
        <ele>615.22345036038</ele>
        <time>2021-07-07T15:15:49.031Z</time>
      </trkpt>
      <trkpt lat="48.64095" lon="7.2474">
        <ele>615.61156086952</ele>
        <time>2021-07-07T15:15:53.632Z</time>
      </trkpt>
      <trkpt lat="48.64078" lon="7.24735">
        <ele>615.98760259958</ele>
        <time>2021-07-07T15:15:58.239Z</time>
      </trkpt>
      <trkpt lat="48.64065" lon="7.24736">
        <ele>616.45838943108</ele>
        <time>2021-07-07T15:16:02.850Z</time>
      </trkpt>
      <trkpt lat="48.64056" lon="7.24739">
        <ele>616.96686401508</ele>
        <time>2021-07-07T15:16:07.465Z</time>
      </trkpt>
      <trkpt lat="48.64031" lon="7.24752">
        <ele>617.66352173495</ele>
        <time>2021-07-07T15:16:12.088Z</time>
      </trkpt>
      <trkpt lat="48.64002" lon="7.24769">
        <ele>618.23919204606</ele>
        <time>2021-07-07T15:16:16.722Z</time>
      </trkpt>
      <trkpt lat="48.63976" lon="7.24791">
        <ele>618.91167417913</ele>
        <time>2021-07-07T15:16:21.366Z</time>
      </trkpt>
      <trkpt lat="48.63945" lon="7.24826">
        <ele>619.75493169618</ele>
        <time>2021-07-07T15:16:26.023Z</time>
      </trkpt>
      <trkpt lat="48.63945" lon="7.24824">
        <ele>620.698695702</ele>
        <time>2021-07-07T15:16:30.680Z</time>
      </trkpt>
      <trkpt lat="48.63945" lon="7.24826">
        <ele>619.75493169618</ele>
        <time>2021-07-07T15:16:35.338Z</time>
      </trkpt>
      <trkpt lat="48.63935" lon="7.24892">
        <ele>623.35936163004</ele>
        <time>2021-07-07T15:16:40.010Z</time>
      </trkpt>
      <trkpt lat="48.63932" lon="7.24918">
        <ele>624.81523226638</ele>
        <time>2021-07-07T15:16:44.688Z</time>
      </trkpt>
      <trkpt lat="48.63929" lon="7.24939">
        <ele>626.36993034709</ele>
        <time>2021-07-07T15:16:49.371Z</time>
      </trkpt>
      <trkpt lat="48.63924" lon="7.24961">
        <ele>628.04441851466</ele>
        <time>2021-07-07T15:16:54.059Z</time>
      </trkpt>
      <trkpt lat="48.63909" lon="7.24999">
        <ele>629.83275120623</ele>
        <time>2021-07-07T15:16:58.757Z</time>
      </trkpt>
      <trkpt lat="48.63881" lon="7.25058">
        <ele>631.86076689697</ele>
        <time>2021-07-07T15:17:03.471Z</time>
      </trkpt>
      <trkpt lat="48.63857" lon="7.25103">
        <ele>633.86960508702</ele>
        <time>2021-07-07T15:17:08.198Z</time>
      </trkpt>
      <trkpt lat="48.63827" lon="7.25142">
        <ele>635.84072539479</ele>
        <time>2021-07-07T15:17:12.938Z</time>
      </trkpt>
      <trkpt lat="48.63802" lon="7.25186">
        <ele>637.85332270901</ele>
        <time>2021-07-07T15:17:17.691Z</time>
      </trkpt>
      <trkpt lat="48.63771" lon="7.25248">
        <ele>639.91269117866</ele>
        <time>2021-07-07T15:17:22.461Z</time>
      </trkpt>
      <trkpt lat="48.63746" lon="7.25311">
        <ele>641.52726768111</ele>
        <time>2021-07-07T15:17:27.247Z</time>
      </trkpt>
      <trkpt lat="48.63692" lon="7.25452">
        <ele>643.63322225079</ele>
        <time>2021-07-07T15:17:32.069Z</time>
      </trkpt>
      <trkpt lat="48.6368" lon="7.25489">
        <ele>645.23292489778</ele>
        <time>2021-07-07T15:17:36.900Z</time>
      </trkpt>
      <trkpt lat="48.63666" lon="7.25532">
        <ele>646.7435928453</ele>
        <time>2021-07-07T15:17:41.742Z</time>
      </trkpt>
      <trkpt lat="48.63658" lon="7.25559">
        <ele>648.11777206565</ele>
        <time>2021-07-07T15:17:46.590Z</time>
      </trkpt>
      <trkpt lat="48.63659" lon="7.25554">
        <ele>649.36513293933</ele>
        <time>2021-07-07T15:17:51.440Z</time>
      </trkpt>
      <trkpt lat="48.63655" lon="7.25566">
        <ele>650.52876216264</ele>
        <time>2021-07-07T15:17:56.293Z</time>
      </trkpt>
      <trkpt lat="48.63649" lon="7.25591">
        <ele>651.68545945664</ele>
        <time>2021-07-07T15:18:01.151Z</time>
      </trkpt>
      <trkpt lat="48.63622" lon="7.25699">
        <ele>652.89007659016</ele>
        <time>2021-07-07T15:18:06.035Z</time>
      </trkpt>
      <trkpt lat="48.63595" lon="7.25813">
        <ele>653.94752560381</ele>
        <time>2021-07-07T15:18:10.946Z</time>
      </trkpt>
      <trkpt lat="48.63591" lon="7.25832">
        <ele>654.94547435239</ele>
        <time>2021-07-07T15:18:15.861Z</time>
      </trkpt>
      <trkpt lat="48.63557" lon="7.25881">
        <ele>656.26654738493</ele>
        <time>2021-07-07T15:18:20.792Z</time>
      </trkpt>
      <trkpt lat="48.6355" lon="7.25889">
        <ele>657.17483779768</ele>
        <time>2021-07-07T15:18:25.726Z</time>
      </trkpt>
      <trkpt lat="48.63545" lon="7.25899">
        <ele>658.06248498921</ele>
        <time>2021-07-07T15:18:30.663Z</time>
      </trkpt>
      <trkpt lat="48.63541" lon="7.25911">
        <ele>659.01153027033</ele>
        <time>2021-07-07T15:18:35.603Z</time>
      </trkpt>
      <trkpt lat="48.63533" lon="7.25943">
        <ele>659.99718225229</ele>
        <time>2021-07-07T15:18:40.550Z</time>
      </trkpt>
      <trkpt lat="48.63533" lon="7.25949">
        <ele>660.88054815651</ele>
        <time>2021-07-07T15:18:45.498Z</time>
      </trkpt>
      <trkpt lat="48.63532" lon="7.25954">
        <ele>661.76800035322</ele>
        <time>2021-07-07T15:18:50.448Z</time>
      </trkpt>
      <trkpt lat="48.6353" lon="7.25968">
        <ele>662.71715966472</ele>
        <time>2021-07-07T15:18:55.401Z</time>
      </trkpt>
      <trkpt lat="48.63523" lon="7.25968">
        <ele>663.64596506235</ele>
        <time>2021-07-07T15:19:00.356Z</time>
      </trkpt>
      <trkpt lat="48.63509" lon="7.25968">
        <ele>664.64568390683</ele>
        <time>2021-07-07T15:19:05.316Z</time>
      </trkpt>
      <trkpt lat="48.63513" lon="7.25978">
        <ele>665.66729968239</ele>
        <time>2021-07-07T15:19:10.278Z</time>
      </trkpt>
      <trkpt lat="48.63506" lon="7.25981">
        <ele>666.71216824058</ele>
        <time>2021-07-07T15:19:15.243Z</time>
      </trkpt>
      <trkpt lat="48.63482" lon="7.25995">
        <ele>667.79711705908</ele>
        <time>2021-07-07T15:19:20.216Z</time>
      </trkpt>
      <trkpt lat="48.63472" lon="7.26003">
        <ele>668.99441050702</ele>
        <time>2021-07-07T15:19:25.193Z</time>
      </trkpt>
      <trkpt lat="48.63446" lon="7.26027">
        <ele>670.42781357978</ele>
        <time>2021-07-07T15:19:30.180Z</time>
      </trkpt>
      <trkpt lat="48.63424" lon="7.26042">
        <ele>671.88328568251</ele>
        <time>2021-07-07T15:19:35.175Z</time>
      </trkpt>
      <trkpt lat="48.63409" lon="7.2605">
        <ele>673.36452904347</ele>
        <time>2021-07-07T15:19:40.176Z</time>
      </trkpt>
      <trkpt lat="48.63398" lon="7.26054">
        <ele>674.90352462523</ele>
        <time>2021-07-07T15:19:45.180Z</time>
      </trkpt>
      <trkpt lat="48.63388" lon="7.26055">
        <ele>676.49895761665</ele>
        <time>2021-07-07T15:19:50.188Z</time>
      </trkpt>
      <trkpt lat="48.63378" lon="7.26056">
        <ele>678.1721142741</ele>
        <time>2021-07-07T15:19:55.199Z</time>
      </trkpt>
      <trkpt lat="48.6337" lon="7.26056">
        <ele>679.93208691702</ele>
        <time>2021-07-07T15:20:00.213Z</time>
      </trkpt>
      <trkpt lat="48.63338" lon="7.26055">
        <ele>681.90585683151</ele>
        <time>2021-07-07T15:20:05.237Z</time>
      </trkpt>
      <trkpt lat="48.63293" lon="7.26051">
        <ele>683.73782449279</ele>
        <time>2021-07-07T15:20:10.276Z</time>
      </trkpt>
      <trkpt lat="48.63218" lon="7.26034">
        <ele>685.99233520588</ele>
        <time>2021-07-07T15:20:15.341Z</time>
      </trkpt>
      <trkpt lat="48.6318" lon="7.26027">
        <ele>688.13860792126</ele>
        <time>2021-07-07T15:20:20.419Z</time>
      </trkpt>
      <trkpt lat="48.63162" lon="7.26027">
        <ele>690.01311268211</ele>
        <time>2021-07-07T15:20:25.503Z</time>
      </trkpt>
      <trkpt lat="48.63124" lon="7.26031">
        <ele>691.83942544323</ele>
        <time>2021-07-07T15:20:30.599Z</time>
      </trkpt>
      <trkpt lat="48.63102" lon="7.26035">
        <ele>693.36813479791</ele>
        <time>2021-07-07T15:20:35.703Z</time>
      </trkpt>
      <trkpt lat="48.63089" lon="7.26036">
        <ele>694.64438410082</ele>
        <time>2021-07-07T15:20:40.811Z</time>
      </trkpt>
      <trkpt lat="48.63077" lon="7.26039">
        <ele>695.64933874661</ele>
        <time>2021-07-07T15:20:45.923Z</time>
      </trkpt>
      <trkpt lat="48.63071" lon="7.26038">
        <ele>696.35681796963</ele>
        <time>2021-07-07T15:20:51.037Z</time>
      </trkpt>
      <trkpt lat="48.6306" lon="7.26042">
        <ele>696.76523452158</ele>
        <time>2021-07-07T15:20:56.155Z</time>
      </trkpt>
      <trkpt lat="48.63076" lon="7.26071">
        <ele>697.00404426813</ele>
        <time>2021-07-07T15:21:01.281Z</time>
      </trkpt>
      <trkpt lat="48.6308" lon="7.26105">
        <ele>696.93411130239</ele>
        <time>2021-07-07T15:21:06.415Z</time>
      </trkpt>
      <trkpt lat="48.63081" lon="7.26111">
        <ele>696.60322071508</ele>
        <time>2021-07-07T15:21:11.550Z</time>
      </trkpt>
      <trkpt lat="48.63084" lon="7.26131">
        <ele>696.01845722091</ele>
        <time>2021-07-07T15:21:16.690Z</time>
      </trkpt>
      <trkpt lat="48.63082" lon="7.26161">
        <ele>695.17345825141</ele>
        <time>2021-07-07T15:21:21.836Z</time>
      </trkpt>
      <trkpt lat="48.63082" lon="7.26178">
        <ele>694.14561234995</ele>
        <time>2021-07-07T15:21:26.986Z</time>
      </trkpt>
      <trkpt lat="48.63083" lon="7.26221">
        <ele>692.89407025559</ele>
        <time>2021-07-07T15:21:32.146Z</time>
      </trkpt>
      <trkpt lat="48.63084" lon="7.26235">
        <ele>691.48692925193</ele>
        <time>2021-07-07T15:21:37.309Z</time>
      </trkpt>
      <trkpt lat="48.63085" lon="7.26265">
        <ele>689.96331559591</ele>
        <time>2021-07-07T15:21:42.478Z</time>
      </trkpt>
      <trkpt lat="48.63088" lon="7.26321">
        <ele>688.14994136908</ele>
        <time>2021-07-07T15:21:47.660Z</time>
      </trkpt>
      <trkpt lat="48.63089" lon="7.26352">
        <ele>686.48392324092</ele>
        <time>2021-07-07T15:21:52.849Z</time>
      </trkpt>
      <trkpt lat="48.63089" lon="7.26352">
        <ele>684.87158745759</ele>
        <time>2021-07-07T15:21:58.038Z</time>
      </trkpt>
      <trkpt lat="48.63089" lon="7.26352">
        <ele>683.23185872319</ele>
        <time>2021-07-07T15:22:03.227Z</time>
      </trkpt>
      <trkpt lat="48.63087" lon="7.26387">
        <ele>681.48892901059</ele>
        <time>2021-07-07T15:22:08.424Z</time>
      </trkpt>
      <trkpt lat="48.63082" lon="7.26432">
        <ele>679.54949108048</ele>
        <time>2021-07-07T15:22:13.631Z</time>
      </trkpt>
      <trkpt lat="48.63081" lon="7.26481">
        <ele>677.63796750087</ele>
        <time>2021-07-07T15:22:18.848Z</time>
      </trkpt>
      <trkpt lat="48.63081" lon="7.26487">
        <ele>675.76803704465</ele>
        <time>2021-07-07T15:22:24.067Z</time>
      </trkpt>
      <trkpt lat="48.63079" lon="7.26503">
        <ele>673.76720200233</ele>
        <time>2021-07-07T15:22:29.289Z</time>
      </trkpt>
      <trkpt lat="48.63079" lon="7.26506">
        <ele>671.65188592574</ele>
        <time>2021-07-07T15:22:34.512Z</time>
      </trkpt>
      <trkpt lat="48.63076" lon="7.26531">
        <ele>669.30762262213</ele>
        <time>2021-07-07T15:22:39.741Z</time>
      </trkpt>
      <trkpt lat="48.63069" lon="7.26564">
        <ele>666.71500319265</ele>
        <time>2021-07-07T15:22:44.977Z</time>
      </trkpt>
      <trkpt lat="48.63065" lon="7.26583">
        <ele>663.88637607234</ele>
        <time>2021-07-07T15:22:50.218Z</time>
      </trkpt>
      <trkpt lat="48.63062" lon="7.26592">
        <ele>660.95659300522</ele>
        <time>2021-07-07T15:22:55.461Z</time>
      </trkpt>
      <trkpt lat="48.63055" lon="7.26615">
        <ele>657.71264193291</ele>
        <time>2021-07-07T15:23:00.710Z</time>
      </trkpt>
      <trkpt lat="48.6304" lon="7.26657">
        <ele>654.16195592092</ele>
        <time>2021-07-07T15:23:05.969Z</time>
      </trkpt>
      <trkpt lat="48.63031" lon="7.26685">
        <ele>650.60449039269</ele>
        <time>2021-07-07T15:23:11.235Z</time>
      </trkpt>
      <trkpt lat="48.63025" lon="7.26709">
        <ele>646.98963406826</ele>
        <time>2021-07-07T15:23:16.507Z</time>
      </trkpt>
      <trkpt lat="48.63022" lon="7.26716">
        <ele>643.70893877215</ele>
        <time>2021-07-07T15:23:21.780Z</time>
      </trkpt>
      <trkpt lat="48.63016" lon="7.26727">
        <ele>640.51914566928</ele>
        <time>2021-07-07T15:23:27.057Z</time>
      </trkpt>
      <trkpt lat="48.63013" lon="7.26734">
        <ele>637.52967123837</ele>
        <time>2021-07-07T15:23:32.335Z</time>
      </trkpt>
      <trkpt lat="48.63002" lon="7.26777">
        <ele>634.22151080331</ele>
        <time>2021-07-07T15:23:37.624Z</time>
      </trkpt>
      <trkpt lat="48.62998" lon="7.26786">
        <ele>631.65432236211</ele>
        <time>2021-07-07T15:23:42.915Z</time>
      </trkpt>
      <trkpt lat="48.62997" lon="7.26787">
        <ele>629.5168671022</ele>
        <time>2021-07-07T15:23:48.206Z</time>
      </trkpt>
      <trkpt lat="48.62996" lon="7.26789">
        <ele>627.65730601233</ele>
        <time>2021-07-07T15:23:53.498Z</time>
      </trkpt>
      <trkpt lat="48.62994" lon="7.26792">
        <ele>626.04045049525</ele>
        <time>2021-07-07T15:23:58.791Z</time>
      </trkpt>
      <trkpt lat="48.62988" lon="7.26796">
        <ele>624.61613926328</ele>
        <time>2021-07-07T15:24:04.086Z</time>
      </trkpt>
      <trkpt lat="48.6298" lon="7.26797">
        <ele>623.39552766237</ele>
        <time>2021-07-07T15:24:09.384Z</time>
      </trkpt>
      <trkpt lat="48.62964" lon="7.26796">
        <ele>622.27509037365</ele>
        <time>2021-07-07T15:24:14.687Z</time>
      </trkpt>
      <trkpt lat="48.62935" lon="7.2679">
        <ele>621.19536311647</ele>
        <time>2021-07-07T15:24:20.000Z</time>
      </trkpt>
      <trkpt lat="48.6293" lon="7.26789">
        <ele>619.92963075798</ele>
        <time>2021-07-07T15:24:25.315Z</time>
      </trkpt>
      <trkpt lat="48.6292" lon="7.2679">
        <ele>618.46718944436</ele>
        <time>2021-07-07T15:24:30.633Z</time>
      </trkpt>
      <trkpt lat="48.6292" lon="7.26807">
        <ele>616.63729733309</ele>
        <time>2021-07-07T15:24:35.955Z</time>
      </trkpt>
      <trkpt lat="48.62932" lon="7.26836">
        <ele>614.4648369644</ele>
        <time>2021-07-07T15:24:41.284Z</time>
      </trkpt>
      <trkpt lat="48.62941" lon="7.26863">
        <ele>612.22118130081</ele>
        <time>2021-07-07T15:24:46.620Z</time>
      </trkpt>
      <trkpt lat="48.62967" lon="7.26888">
        <ele>609.66256824657</ele>
        <time>2021-07-07T15:24:51.966Z</time>
      </trkpt>
      <trkpt lat="48.62986" lon="7.26911">
        <ele>606.92169522262</ele>
        <time>2021-07-07T15:24:57.320Z</time>
      </trkpt>
      <trkpt lat="48.62997" lon="7.2693">
        <ele>604.23882017351</ele>
        <time>2021-07-07T15:25:02.680Z</time>
      </trkpt>
      <trkpt lat="48.63005" lon="7.26948">
        <ele>601.59052781399</ele>
        <time>2021-07-07T15:25:08.045Z</time>
      </trkpt>
      <trkpt lat="48.63008" lon="7.26956">
        <ele>599.06510978765</ele>
        <time>2021-07-07T15:25:13.412Z</time>
      </trkpt>
      <trkpt lat="48.63011" lon="7.26967">
        <ele>596.58985905134</ele>
        <time>2021-07-07T15:25:18.781Z</time>
      </trkpt>
      <trkpt lat="48.63014" lon="7.26987">
        <ele>594.13012084225</ele>
        <time>2021-07-07T15:25:24.155Z</time>
      </trkpt>
      <trkpt lat="48.63017" lon="7.27009">
        <ele>591.75761637607</ele>
        <time>2021-07-07T15:25:29.534Z</time>
      </trkpt>
      <trkpt lat="48.63017" lon="7.2702">
        <ele>589.51799941583</ele>
        <time>2021-07-07T15:25:34.915Z</time>
      </trkpt>
      <trkpt lat="48.63017" lon="7.27032">
        <ele>587.27163811315</ele>
        <time>2021-07-07T15:25:40.299Z</time>
      </trkpt>
      <trkpt lat="48.63015" lon="7.27051">
        <ele>585.0765824061</ele>
        <time>2021-07-07T15:25:45.687Z</time>
      </trkpt>
      <trkpt lat="48.63013" lon="7.27061">
        <ele>582.89419238201</ele>
        <time>2021-07-07T15:25:51.078Z</time>
      </trkpt>
      <trkpt lat="48.63005" lon="7.27092">
        <ele>580.70391536401</ele>
        <time>2021-07-07T15:25:56.476Z</time>
      </trkpt>
      <trkpt lat="48.6299" lon="7.27133">
        <ele>578.25137375767</ele>
        <time>2021-07-07T15:26:01.884Z</time>
      </trkpt>
      <trkpt lat="48.62984" lon="7.27154">
        <ele>575.72789167972</ele>
        <time>2021-07-07T15:26:07.297Z</time>
      </trkpt>
      <trkpt lat="48.62966" lon="7.27228">
        <ele>572.90995485882</ele>
        <time>2021-07-07T15:26:12.728Z</time>
      </trkpt>
      <trkpt lat="48.62964" lon="7.27236">
        <ele>570.43591236352</ele>
        <time>2021-07-07T15:26:18.161Z</time>
      </trkpt>
      <trkpt lat="48.62962" lon="7.27259">
        <ele>567.84595635313</ele>
        <time>2021-07-07T15:26:23.599Z</time>
      </trkpt>
      <trkpt lat="48.62958" lon="7.27303">
        <ele>565.0730538949</ele>
        <time>2021-07-07T15:26:29.047Z</time>
      </trkpt>
      <trkpt lat="48.62958" lon="7.27306">
        <ele>562.79767373207</ele>
        <time>2021-07-07T15:26:34.495Z</time>
      </trkpt>
      <trkpt lat="48.62951" lon="7.27324">
        <ele>560.61070386903</ele>
        <time>2021-07-07T15:26:39.948Z</time>
      </trkpt>
      <trkpt lat="48.62945" lon="7.27336">
        <ele>558.59931166768</ele>
        <time>2021-07-07T15:26:45.404Z</time>
      </trkpt>
      <trkpt lat="48.62942" lon="7.2734">
        <ele>556.83599513242</ele>
        <time>2021-07-07T15:26:50.862Z</time>
      </trkpt>
      <trkpt lat="48.62936" lon="7.27349">
        <ele>555.22814943416</ele>
        <time>2021-07-07T15:26:56.322Z</time>
      </trkpt>
      <trkpt lat="48.62927" lon="7.27361">
        <ele>553.81476416765</ele>
        <time>2021-07-07T15:27:01.786Z</time>
      </trkpt>
      <trkpt lat="48.62908" lon="7.27382">
        <ele>552.50470687937</ele>
        <time>2021-07-07T15:27:07.258Z</time>
      </trkpt>
      <trkpt lat="48.629" lon="7.27393">
        <ele>551.30074223162</ele>
        <time>2021-07-07T15:27:12.734Z</time>
      </trkpt>
      <trkpt lat="48.62892" lon="7.27402">
        <ele>550.31092731276</ele>
        <time>2021-07-07T15:27:18.213Z</time>
      </trkpt>
      <trkpt lat="48.62884" lon="7.27413">
        <ele>549.29620262416</ele>
        <time>2021-07-07T15:27:23.696Z</time>
      </trkpt>
      <trkpt lat="48.6287" lon="7.27439">
        <ele>548.12432145948</ele>
        <time>2021-07-07T15:27:29.186Z</time>
      </trkpt>
      <trkpt lat="48.62864" lon="7.27454">
        <ele>547.20260846934</ele>
        <time>2021-07-07T15:27:34.680Z</time>
      </trkpt>
      <trkpt lat="48.62862" lon="7.2746">
        <ele>546.36182088395</ele>
        <time>2021-07-07T15:27:40.176Z</time>
      </trkpt>
      <trkpt lat="48.62861" lon="7.27466">
        <ele>545.47235198238</ele>
        <time>2021-07-07T15:27:45.673Z</time>
      </trkpt>
      <trkpt lat="48.62854" lon="7.27541">
        <ele>544.14138178349</ele>
        <time>2021-07-07T15:27:51.187Z</time>
      </trkpt>
      <trkpt lat="48.62854" lon="7.27544">
        <ele>543.0081679188</ele>
        <time>2021-07-07T15:27:56.701Z</time>
      </trkpt>
      <trkpt lat="48.62853" lon="7.27544">
        <ele>541.7540708972</ele>
        <time>2021-07-07T15:28:02.216Z</time>
      </trkpt>
      <trkpt lat="48.62833" lon="7.27574">
        <ele>540.44497909779</ele>
        <time>2021-07-07T15:28:07.740Z</time>
      </trkpt>
      <trkpt lat="48.62825" lon="7.2761">
        <ele>538.60685047194</ele>
        <time>2021-07-07T15:28:13.272Z</time>
      </trkpt>
      <trkpt lat="48.62815" lon="7.27645">
        <ele>536.35564863013</ele>
        <time>2021-07-07T15:28:18.813Z</time>
      </trkpt>
      <trkpt lat="48.62816" lon="7.27681">
        <ele>533.06722757145</ele>
        <time>2021-07-07T15:28:24.362Z</time>
      </trkpt>
      <trkpt lat="48.62818" lon="7.27679">
        <ele>529.87604010185</ele>
        <time>2021-07-07T15:28:29.912Z</time>
      </trkpt>
      <trkpt lat="48.62847" lon="7.2767">
        <ele>525.549621929</ele>
        <time>2021-07-07T15:28:35.472Z</time>
      </trkpt>
      <trkpt lat="48.62866" lon="7.27662">
        <ele>521.29910584519</ele>
        <time>2021-07-07T15:28:41.038Z</time>
      </trkpt>
      <trkpt lat="48.6289" lon="7.27651">
        <ele>517.2572839687</ele>
        <time>2021-07-07T15:28:46.612Z</time>
      </trkpt>
      <trkpt lat="48.62886" lon="7.27677">
        <ele>512.55588986639</ele>
        <time>2021-07-07T15:28:52.192Z</time>
      </trkpt>
      <trkpt lat="48.62884" lon="7.27707">
        <ele>507.59822452084</ele>
        <time>2021-07-07T15:28:57.779Z</time>
      </trkpt>
      <trkpt lat="48.62881" lon="7.27734">
        <ele>502.80300406326</ele>
        <time>2021-07-07T15:29:03.372Z</time>
      </trkpt>
      <trkpt lat="48.62879" lon="7.2774">
        <ele>497.96525339181</ele>
        <time>2021-07-07T15:29:08.967Z</time>
      </trkpt>
      <trkpt lat="48.62874" lon="7.27773">
        <ele>492.87236245943</ele>
        <time>2021-07-07T15:29:14.569Z</time>
      </trkpt>
      <trkpt lat="48.62873" lon="7.27792">
        <ele>487.87489213731</ele>
        <time>2021-07-07T15:29:20.175Z</time>
      </trkpt>
      <trkpt lat="48.62872" lon="7.27811">
        <ele>482.83883785103</ele>
        <time>2021-07-07T15:29:25.786Z</time>
      </trkpt>
      <trkpt lat="48.62874" lon="7.27861">
        <ele>477.60211452363</ele>
        <time>2021-07-07T15:29:31.408Z</time>
      </trkpt>
      <trkpt lat="48.62877" lon="7.2789">
        <ele>472.80837673312</ele>
        <time>2021-07-07T15:29:37.036Z</time>
      </trkpt>
      <trkpt lat="48.62879" lon="7.279">
        <ele>468.51211902525</ele>
        <time>2021-07-07T15:29:42.666Z</time>
      </trkpt>
      <trkpt lat="48.62883" lon="7.27921">
        <ele>464.51863838233</ele>
        <time>2021-07-07T15:29:48.301Z</time>
      </trkpt>
      <trkpt lat="48.62886" lon="7.27972">
        <ele>460.73875000432</ele>
        <time>2021-07-07T15:29:53.948Z</time>
      </trkpt>
      <trkpt lat="48.62892" lon="7.28004">
        <ele>457.40086414916</ele>
        <time>2021-07-07T15:29:59.602Z</time>
      </trkpt>
      <trkpt lat="48.62897" lon="7.28026">
        <ele>454.8857806783</ele>
        <time>2021-07-07T15:30:05.261Z</time>
      </trkpt>
      <trkpt lat="48.62898" lon="7.28031">
        <ele>453.35455984302</ele>
        <time>2021-07-07T15:30:10.921Z</time>
      </trkpt>
      <trkpt lat="48.62883" lon="7.28026">
        <ele>452.54536671579</ele>
        <time>2021-07-07T15:30:16.586Z</time>
      </trkpt>
      <trkpt lat="48.62872" lon="7.28053">
        <ele>452.66731669596</ele>
        <time>2021-07-07T15:30:22.258Z</time>
      </trkpt>
      <trkpt lat="48.62868" lon="7.28057">
        <ele>453.58582421392</ele>
        <time>2021-07-07T15:30:27.932Z</time>
      </trkpt>
      <trkpt lat="48.62866" lon="7.28062">
        <ele>455.19625782953</ele>
        <time>2021-07-07T15:30:33.607Z</time>
      </trkpt>
      <trkpt lat="48.62861" lon="7.28073">
        <ele>457.57682412707</ele>
        <time>2021-07-07T15:30:39.285Z</time>
      </trkpt>
      <trkpt lat="48.62861" lon="7.28093">
        <ele>460.49556234902</ele>
        <time>2021-07-07T15:30:44.968Z</time>
      </trkpt>
      <trkpt lat="48.62893" lon="7.28153">
        <ele>463.59976863727</ele>
        <time>2021-07-07T15:30:50.668Z</time>
      </trkpt>
      <trkpt lat="48.62916" lon="7.2821">
        <ele>466.90728667327</ele>
        <time>2021-07-07T15:30:56.382Z</time>
      </trkpt>
      <trkpt lat="48.62933" lon="7.28258">
        <ele>470.08296948968</ele>
        <time>2021-07-07T15:31:02.108Z</time>
      </trkpt>
      <trkpt lat="48.62942" lon="7.28272">
        <ele>473.03459348803</ele>
        <time>2021-07-07T15:31:07.839Z</time>
      </trkpt>
      <trkpt lat="48.62942" lon="7.28306">
        <ele>476.13663411157</ele>
        <time>2021-07-07T15:31:13.577Z</time>
      </trkpt>
      <trkpt lat="48.62961" lon="7.28358">
        <ele>478.7811795081</ele>
        <time>2021-07-07T15:31:19.328Z</time>
      </trkpt>
      <trkpt lat="48.62968" lon="7.28378">
        <ele>481.4458811026</ele>
        <time>2021-07-07T15:31:25.084Z</time>
      </trkpt>
      <trkpt lat="48.62975" lon="7.28412">
        <ele>483.97277123293</ele>
        <time>2021-07-07T15:31:30.848Z</time>
      </trkpt>
      <trkpt lat="48.62981" lon="7.28434">
        <ele>486.32672462301</ele>
        <time>2021-07-07T15:31:36.618Z</time>
      </trkpt>
      <trkpt lat="48.62988" lon="7.28485">
        <ele>488.86282848625</ele>
        <time>2021-07-07T15:31:42.399Z</time>
      </trkpt>
      <trkpt lat="48.62994" lon="7.28606">
        <ele>491.38962468279</ele>
        <time>2021-07-07T15:31:48.207Z</time>
      </trkpt>
      <trkpt lat="48.62994" lon="7.28683">
        <ele>493.56416825408</ele>
        <time>2021-07-07T15:31:54.032Z</time>
      </trkpt>
      <trkpt lat="48.62983" lon="7.28731">
        <ele>495.36775348916</ele>
        <time>2021-07-07T15:31:59.868Z</time>
      </trkpt>
      <trkpt lat="48.62997" lon="7.28749">
        <ele>496.53053331002</ele>
        <time>2021-07-07T15:32:05.710Z</time>
      </trkpt>
      <trkpt lat="48.63" lon="7.28754">
        <ele>497.86395062526</ele>
        <time>2021-07-07T15:32:11.554Z</time>
      </trkpt>
      <trkpt lat="48.63013" lon="7.28779">
        <ele>499.0995770841</ele>
        <time>2021-07-07T15:32:17.405Z</time>
      </trkpt>
      <trkpt lat="48.6302" lon="7.28802">
        <ele>500.55996064922</ele>
        <time>2021-07-07T15:32:23.261Z</time>
      </trkpt>
      <trkpt lat="48.63049" lon="7.28874">
        <ele>502.03290269466</ele>
        <time>2021-07-07T15:32:29.136Z</time>
      </trkpt>
      <trkpt lat="48.63068" lon="7.28927">
        <ele>503.4581009323</ele>
        <time>2021-07-07T15:32:35.024Z</time>
      </trkpt>
      <trkpt lat="48.63086" lon="7.29031">
        <ele>505.28998688253</ele>
        <time>2021-07-07T15:32:40.936Z</time>
      </trkpt>
      <trkpt lat="48.63093" lon="7.29153">
        <ele>507.05479847405</ele>
        <time>2021-07-07T15:32:46.875Z</time>
      </trkpt>
      <trkpt lat="48.63096" lon="7.29235">
        <ele>508.5850111389</ele>
        <time>2021-07-07T15:32:52.832Z</time>
      </trkpt>
      <trkpt lat="48.63093" lon="7.29307">
        <ele>509.99459238573</ele>
        <time>2021-07-07T15:32:58.805Z</time>
      </trkpt>
      <trkpt lat="48.63093" lon="7.2931">
        <ele>511.1167307151</ele>
        <time>2021-07-07T15:33:04.779Z</time>
      </trkpt>
      <trkpt lat="48.63091" lon="7.2937">
        <ele>512.19805700935</ele>
        <time>2021-07-07T15:33:10.766Z</time>
      </trkpt>
      <trkpt lat="48.63075" lon="7.2948">
        <ele>513.06681367727</ele>
        <time>2021-07-07T15:33:16.778Z</time>
      </trkpt>
      <trkpt lat="48.63057" lon="7.296">
        <ele>513.23045984509</ele>
        <time>2021-07-07T15:33:22.817Z</time>
      </trkpt>
      <trkpt lat="48.63048" lon="7.2964">
        <ele>513.95859271639</ele>
        <time>2021-07-07T15:33:28.866Z</time>
      </trkpt>
      <trkpt lat="48.63037" lon="7.297">
        <ele>514.47440226868</ele>
        <time>2021-07-07T15:33:34.928Z</time>
      </trkpt>
      <trkpt lat="48.63017" lon="7.29814">
        <ele>514.77882281036</ele>
        <time>2021-07-07T15:33:41.017Z</time>
      </trkpt>
      <trkpt lat="48.63009" lon="7.29857">
        <ele>514.6091357573</ele>
        <time>2021-07-07T15:33:47.115Z</time>
      </trkpt>
      <trkpt lat="48.63002" lon="7.29882">
        <ele>514.4335707526</ele>
        <time>2021-07-07T15:33:53.219Z</time>
      </trkpt>
      <trkpt lat="48.62994" lon="7.29901">
        <ele>514.13559106594</ele>
        <time>2021-07-07T15:33:59.328Z</time>
      </trkpt>
      <trkpt lat="48.62988" lon="7.2991">
        <ele>513.93643939596</ele>
        <time>2021-07-07T15:34:05.440Z</time>
      </trkpt>
      <trkpt lat="48.62986" lon="7.29912">
        <ele>513.77479563535</ele>
        <time>2021-07-07T15:34:11.553Z</time>
      </trkpt>
      <trkpt lat="48.62982" lon="7.29901">
        <ele>513.76311894544</ele>
        <time>2021-07-07T15:34:17.669Z</time>
      </trkpt>
      <trkpt lat="48.62976" lon="7.29906">
        <ele>513.5321634507</ele>
        <time>2021-07-07T15:34:23.787Z</time>
      </trkpt>
      <trkpt lat="48.62971" lon="7.29909">
        <ele>513.27110139542</ele>
        <time>2021-07-07T15:34:29.907Z</time>
      </trkpt>
      <trkpt lat="48.62966" lon="7.2991">
        <ele>513.05108507814</ele>
        <time>2021-07-07T15:34:36.029Z</time>
      </trkpt>
      <trkpt lat="48.6296" lon="7.2991">
        <ele>512.89806675728</ele>
        <time>2021-07-07T15:34:42.153Z</time>
      </trkpt>
      <trkpt lat="48.62951" lon="7.29908">
        <ele>512.83746889045</ele>
        <time>2021-07-07T15:34:48.280Z</time>
      </trkpt>
      <trkpt lat="48.62931" lon="7.29901">
        <ele>512.84428230479</ele>
        <time>2021-07-07T15:34:54.413Z</time>
      </trkpt>
      <trkpt lat="48.62901" lon="7.29891">
        <ele>512.85922940056</ele>
        <time>2021-07-07T15:35:00.557Z</time>
      </trkpt>
      <trkpt lat="48.62889" lon="7.29888">
        <ele>513.08776692747</ele>
        <time>2021-07-07T15:35:06.705Z</time>
      </trkpt>
      <trkpt lat="48.62869" lon="7.29879">
        <ele>513.59791228861</ele>
        <time>2021-07-07T15:35:12.860Z</time>
      </trkpt>
      <trkpt lat="48.62861" lon="7.29875">
        <ele>514.3985397716</ele>
        <time>2021-07-07T15:35:19.018Z</time>
      </trkpt>
      <trkpt lat="48.62836" lon="7.29858">
        <ele>515.55213566385</ele>
        <time>2021-07-07T15:35:25.185Z</time>
      </trkpt>
      <trkpt lat="48.62826" lon="7.29853">
        <ele>516.42856518111</ele>
        <time>2021-07-07T15:35:31.355Z</time>
      </trkpt>
      <trkpt lat="48.62819" lon="7.29851">
        <ele>517.12812905356</ele>
        <time>2021-07-07T15:35:37.528Z</time>
      </trkpt>
      <trkpt lat="48.6281" lon="7.2985">
        <ele>517.67204129909</ele>
        <time>2021-07-07T15:35:43.704Z</time>
      </trkpt>
      <trkpt lat="48.62791" lon="7.29849">
        <ele>517.99250123308</ele>
        <time>2021-07-07T15:35:49.886Z</time>
      </trkpt>
      <trkpt lat="48.62787" lon="7.29849">
        <ele>518.18003772679</ele>
        <time>2021-07-07T15:35:56.069Z</time>
      </trkpt>
      <trkpt lat="48.62784" lon="7.2985">
        <ele>518.11386104868</ele>
        <time>2021-07-07T15:36:02.253Z</time>
      </trkpt>
      <trkpt lat="48.62781" lon="7.29851">
        <ele>517.78647551924</ele>
        <time>2021-07-07T15:36:08.438Z</time>
      </trkpt>
      <trkpt lat="48.62776" lon="7.29854">
        <ele>517.13171729337</ele>
        <time>2021-07-07T15:36:14.625Z</time>
      </trkpt>
      <trkpt lat="48.62768" lon="7.29858">
        <ele>516.19743091903</ele>
        <time>2021-07-07T15:36:20.815Z</time>
      </trkpt>
      <trkpt lat="48.62758" lon="7.29866">
        <ele>515.01411480177</ele>
        <time>2021-07-07T15:36:27.009Z</time>
      </trkpt>
      <trkpt lat="48.62734" lon="7.29891">
        <ele>513.89774166584</ele>
        <time>2021-07-07T15:36:33.212Z</time>
      </trkpt>
      <trkpt lat="48.62718" lon="7.29907">
        <ele>513.53649928053</ele>
        <time>2021-07-07T15:36:39.422Z</time>
      </trkpt>
      <trkpt lat="48.62706" lon="7.29923">
        <ele>512.87430177054</ele>
        <time>2021-07-07T15:36:45.637Z</time>
      </trkpt>
    </trkseg>
  </trk>
</gpx>